CTV8510 OEJN-VGHS
Flight info
| Callsign | CTV8510 |
|---|---|
| Flight time | 6h 5m |
| Altitude | 37000 |
| Route | EGREP2W EGREP T532 KODIS Y214 RAPMA DCT DEGNO DCT MIDGU M440 DEMKI/N0482F350 M440 TULBU N881 RASKI L639 BPL A791 CEA A462 IKOGU IKOGU1B |
| Aircraft | A339/H-SADE1E2E3GHIJ3J5M1P2RWXY/LB2D1 |
Departure
| Time | 2026-04-29 10:04 |
|---|---|
| Airport | King Abdulaziz International Airport (OEJN) |
Arrival
| Time | 2026-04-29 16:09 |
|---|---|
| Airport | Hazrat Shahjalal International Airport (VGHS) |
| Time | Latitude | Longitude | Altitude | Speed | Heading |
|---|---|---|---|---|---|
| 2026-04-29 09:05 | 21.66948 | 39.16821 | 47 ft | 0 kts | 4° |
| 2026-04-29 09:06 | 21.66945 | 39.16821 | 74 ft | 0 kts | 4° |
| 2026-04-29 09:51 | 21.66935 | 39.16820 | 46 ft | 4 kts | 4° |
| 2026-04-29 09:51 | 21.66908 | 39.16817 | 44 ft | 4 kts | 4° |
| 2026-04-29 09:51 | 21.66887 | 39.16817 | 42 ft | 4 kts | 22° |
| 2026-04-29 09:51 | 21.66870 | 39.16810 | 43 ft | 4 kts | 75° |
| 2026-04-29 09:52 | 21.66867 | 39.16785 | 42 ft | 4 kts | 103° |
| 2026-04-29 09:52 | 21.66871 | 39.16769 | 43 ft | 0 kts | 110° |
| 2026-04-29 09:57 | 21.66868 | 39.16775 | 45 ft | 2 kts | 110° |
| 2026-04-29 09:57 | 21.66859 | 39.16799 | 46 ft | 5 kts | 113° |
| 2026-04-29 09:57 | 21.66838 | 39.16838 | 46 ft | 7 kts | 121° |
| 2026-04-29 09:57 | 21.66797 | 39.16884 | 47 ft | 10 kts | 142° |
| 2026-04-29 09:58 | 21.66725 | 39.16922 | 47 ft | 13 kts | 157° |
| 2026-04-29 09:58 | 21.66629 | 39.16957 | 48 ft | 16 kts | 162° |
| 2026-04-29 09:58 | 21.66511 | 39.16999 | 48 ft | 19 kts | 163° |
| 2026-04-29 09:58 | 21.66425 | 39.16975 | 46 ft | 14 kts | 235° |
| 2026-04-29 09:59 | 21.66380 | 39.16864 | 45 ft | 18 kts | 249° |
| 2026-04-29 09:59 | 21.66375 | 39.16851 | 43 ft | 0 kts | 249° |
| 2026-04-29 10:00 | 21.66372 | 39.16844 | 44 ft | 3 kts | 249° |
| 2026-04-29 10:00 | 21.66359 | 39.16807 | 44 ft | 7 kts | 249° |
| 2026-04-29 10:01 | 21.66340 | 39.16753 | 44 ft | 9 kts | 250° |
| 2026-04-29 10:01 | 21.66318 | 39.16687 | 43 ft | 10 kts | 250° |
| 2026-04-29 10:01 | 21.66292 | 39.16613 | 42 ft | 11 kts | 249° |
| 2026-04-29 10:01 | 21.66262 | 39.16527 | 41 ft | 13 kts | 249° |
| 2026-04-29 10:02 | 21.66241 | 39.16463 | 40 ft | 4 kts | 256° |
| 2026-04-29 10:02 | 21.66252 | 39.16444 | 40 ft | 2 kts | 304° |
| 2026-04-29 10:02 | 21.66264 | 39.16435 | 39 ft | 2 kts | 321° |
| 2026-04-29 10:02 | 21.66274 | 39.16430 | 41 ft | 1 kts | 328° |
| 2026-04-29 10:03 | 21.66286 | 39.16423 | 41 ft | 5 kts | 334° |
| 2026-04-29 10:03 | 21.66478 | 39.16346 | 42 ft | 65 kts | 340° |
| 2026-04-29 10:03 | 21.67146 | 39.16086 | 39 ft | 136 kts | 339° |
| 2026-04-29 10:03 | 21.68185 | 39.15691 | 283 ft | 168 kts | 341° |
| 2026-04-29 10:04 | 21.69261 | 39.15284 | 1381 ft | 150 kts | 341° |
| 2026-04-29 10:04 | 21.70171 | 39.14959 | 2619 ft | 128 kts | 342° |
| 2026-04-29 10:04 | 21.71058 | 39.14637 | 3089 ft | 149 kts | 341° |
| 2026-04-29 10:04 | 21.72150 | 39.14228 | 3261 ft | 190 kts | 340° |
| 2026-04-29 10:05 | 21.73503 | 39.13715 | 3571 ft | 215 kts | 339° |
| 2026-04-29 10:05 | 21.74920 | 39.13175 | 4440 ft | 216 kts | 338° |
| 2026-04-29 10:05 | 21.76368 | 39.12630 | 5065 ft | 229 kts | 337° |
| 2026-04-29 10:05 | 21.77998 | 39.12002 | 5077 ft | 258 kts | 336° |
| 2026-04-29 10:06 | 21.79603 | 39.11372 | 6238 ft | 243 kts | 336° |
| 2026-04-29 10:06 | 21.81179 | 39.10754 | 7061 ft | 238 kts | 336° |
| 2026-04-29 10:06 | 21.82722 | 39.10140 | 7783 ft | 239 kts | 334° |
| 2026-04-29 10:06 | 21.84321 | 39.09442 | 8099 ft | 257 kts | 334° |
| 2026-04-29 10:07 | 21.86045 | 39.08684 | 8314 ft | 278 kts | 334° |
| 2026-04-29 10:07 | 21.87869 | 39.07909 | 8627 ft | 291 kts | 336° |
| 2026-04-29 10:07 | 21.89757 | 39.07135 | 9303 ft | 291 kts | 335° |
| 2026-04-29 10:07 | 21.91616 | 39.06260 | 9978 ft | 291 kts | 333° |
| 2026-04-29 10:08 | 21.93495 | 39.05361 | 10352 ft | 304 kts | 332° |
| 2026-04-29 10:08 | 21.95485 | 39.04404 | 10525 ft | 322 kts | 333° |
| 2026-04-29 10:08 | 21.97595 | 39.03391 | 10700 ft | 340 kts | 333° |
| 2026-04-29 10:08 | 21.99784 | 39.02346 | 11169 ft | 347 kts | 333° |
| 2026-04-29 10:09 | 22.02001 | 39.01290 | 11776 ft | 350 kts | 333° |
| 2026-04-29 10:09 | 22.04237 | 39.00225 | 12331 ft | 353 kts | 333° |
| 2026-04-29 10:09 | 22.06494 | 38.99147 | 12819 ft | 356 kts | 332° |
| 2026-04-29 10:09 | 22.08774 | 38.98057 | 12980 ft | 359 kts | 332° |
| 2026-04-29 10:10 | 22.11052 | 38.96967 | 13020 ft | 359 kts | 332° |
| 2026-04-29 10:10 | 22.13359 | 38.95930 | 13021 ft | 360 kts | 340° |
| 2026-04-29 10:10 | 22.15863 | 38.95564 | 13035 ft | 368 kts | 359° |
| 2026-04-29 10:10 | 22.18379 | 38.96101 | 13031 ft | 373 kts | 18° |
| 2026-04-29 10:11 | 22.20638 | 38.97499 | 13029 ft | 378 kts | 37° |
| 2026-04-29 10:11 | 22.22545 | 38.99460 | 13034 ft | 379 kts | 45° |
| 2026-04-29 10:11 | 22.24321 | 39.01517 | 13030 ft | 380 kts | 46° |
| 2026-04-29 10:11 | 22.26157 | 39.03563 | 13026 ft | 379 kts | 44° |
| 2026-04-29 10:12 | 22.28044 | 39.05547 | 13034 ft | 379 kts | 43° |
| 2026-04-29 10:12 | 22.29679 | 39.07780 | 13033 ft | 381 kts | 59° |
| 2026-04-29 10:12 | 22.30720 | 39.10408 | 13037 ft | 381 kts | 75° |
| 2026-04-29 10:12 | 22.31309 | 39.13200 | 13038 ft | 381 kts | 78° |
| 2026-04-29 10:13 | 22.31892 | 39.15991 | 13034 ft | 381 kts | 78° |
| 2026-04-29 10:13 | 22.32489 | 39.18786 | 13041 ft | 382 kts | 78° |
| 2026-04-29 10:13 | 22.33094 | 39.21577 | 13045 ft | 381 kts | 78° |
| 2026-04-29 10:13 | 22.33703 | 39.24367 | 13040 ft | 382 kts | 78° |
| 2026-04-29 10:14 | 22.34314 | 39.27159 | 13037 ft | 382 kts | 78° |
| 2026-04-29 10:14 | 22.34924 | 39.29954 | 13045 ft | 382 kts | 78° |
| 2026-04-29 10:14 | 22.35534 | 39.32752 | 13041 ft | 383 kts | 78° |
| 2026-04-29 10:14 | 22.36142 | 39.35549 | 13050 ft | 382 kts | 78° |
| 2026-04-29 10:15 | 22.36751 | 39.38346 | 13051 ft | 382 kts | 78° |
| 2026-04-29 10:15 | 22.37361 | 39.41149 | 13056 ft | 383 kts | 78° |
| 2026-04-29 10:15 | 22.37969 | 39.43955 | 13058 ft | 383 kts | 78° |
| 2026-04-29 10:15 | 22.38576 | 39.46757 | 13055 ft | 383 kts | 78° |
| 2026-04-29 10:16 | 22.39183 | 39.49565 | 13059 ft | 384 kts | 78° |
| 2026-04-29 10:16 | 22.39585 | 39.51425 | 13063 ft | 384 kts | 78° |
| 2026-04-29 10:16 | 22.40401 | 39.55195 | 13130 ft | 387 kts | 78° |
| 2026-04-29 10:16 | 22.41018 | 39.58040 | 13582 ft | 389 kts | 78° |
| 2026-04-29 10:17 | 22.41637 | 39.60898 | 14019 ft | 393 kts | 78° |
| 2026-04-29 10:17 | 22.42260 | 39.63786 | 14449 ft | 395 kts | 78° |
| 2026-04-29 10:17 | 22.42887 | 39.66690 | 14869 ft | 398 kts | 78° |
| 2026-04-29 10:17 | 22.43519 | 39.69621 | 15292 ft | 401 kts | 78° |
| 2026-04-29 10:18 | 22.44147 | 39.72538 | 15704 ft | 404 kts | 78° |
| 2026-04-29 10:18 | 22.44784 | 39.75510 | 16138 ft | 407 kts | 78° |
| 2026-04-29 10:18 | 22.45505 | 39.78478 | 16517 ft | 411 kts | 72° |
| 2026-04-29 10:18 | 22.46590 | 39.81343 | 16928 ft | 413 kts | 63° |
| 2026-04-29 10:19 | 22.48041 | 39.84036 | 17360 ft | 413 kts | 54° |
| 2026-04-29 10:19 | 22.49812 | 39.86496 | 17735 ft | 415 kts | 46° |
| 2026-04-29 10:19 | 22.51867 | 39.88681 | 18097 ft | 416 kts | 38° |
| 2026-04-29 10:19 | 22.54073 | 39.90728 | 18496 ft | 419 kts | 38° |
| 2026-04-29 10:20 | 22.56273 | 39.92802 | 18894 ft | 420 kts | 38° |
| 2026-04-29 10:20 | 22.58470 | 39.94897 | 19262 ft | 423 kts | 39° |
| 2026-04-29 10:20 | 22.60682 | 39.97015 | 19641 ft | 425 kts | 39° |
| 2026-04-29 10:20 | 22.62903 | 39.99144 | 20023 ft | 427 kts | 38° |
| 2026-04-29 10:21 | 22.65135 | 40.01282 | 20386 ft | 430 kts | 38° |
| 2026-04-29 10:21 | 22.67356 | 40.03407 | 20760 ft | 433 kts | 38° |
| 2026-04-29 10:21 | 22.69616 | 40.05570 | 21122 ft | 435 kts | 38° |
| 2026-04-29 10:21 | 22.71888 | 40.07746 | 21485 ft | 438 kts | 38° |
| 2026-04-29 10:22 | 22.74181 | 40.09943 | 21854 ft | 441 kts | 38° |
| 2026-04-29 10:22 | 22.76486 | 40.12153 | 22225 ft | 444 kts | 38° |
| 2026-04-29 10:22 | 22.78803 | 40.14376 | 22606 ft | 446 kts | 38° |
| 2026-04-29 10:22 | 22.81130 | 40.16610 | 22943 ft | 449 kts | 38° |
| 2026-04-29 10:23 | 22.83480 | 40.18866 | 23304 ft | 453 kts | 38° |
| 2026-04-29 10:23 | 22.85843 | 40.21136 | 23678 ft | 455 kts | 38° |
| 2026-04-29 10:23 | 22.88222 | 40.23423 | 23952 ft | 459 kts | 38° |
| 2026-04-29 10:23 | 22.90621 | 40.25730 | 24219 ft | 463 kts | 38° |
| 2026-04-29 10:24 | 22.93045 | 40.28062 | 24501 ft | 466 kts | 38° |
| 2026-04-29 10:24 | 22.95476 | 40.30403 | 24788 ft | 469 kts | 38° |
| 2026-04-29 10:24 | 22.97924 | 40.32760 | 25033 ft | 473 kts | 38° |
| 2026-04-29 10:24 | 23.00390 | 40.35137 | 25324 ft | 475 kts | 38° |
| 2026-04-29 10:25 | 23.02873 | 40.37530 | 25571 ft | 479 kts | 38° |
| 2026-04-29 10:25 | 23.05374 | 40.39942 | 25830 ft | 482 kts | 37° |
| 2026-04-29 10:25 | 23.07884 | 40.42364 | 26119 ft | 484 kts | 37° |
| 2026-04-29 10:25 | 23.10415 | 40.44807 | 26371 ft | 488 kts | 37° |
| 2026-04-29 10:26 | 23.12960 | 40.47265 | 26616 ft | 491 kts | 37° |
| 2026-04-29 10:26 | 23.15516 | 40.49735 | 26864 ft | 493 kts | 37° |
| 2026-04-29 10:26 | 23.18087 | 40.52222 | 27097 ft | 496 kts | 37° |
| 2026-04-29 10:26 | 23.20677 | 40.54726 | 27332 ft | 499 kts | 37° |
| 2026-04-29 10:27 | 23.25653 | 40.60019 | 27777 ft | 510 kts | 47° |
| 2026-04-29 10:27 | 23.27734 | 40.63160 | 28014 ft | 516 kts | 56° |
| 2026-04-29 10:27 | 23.29452 | 40.66604 | 28223 ft | 521 kts | 64° |
| 2026-04-29 10:28 | 23.30796 | 40.70288 | 28431 ft | 524 kts | 69° |
| 2026-04-29 10:28 | 23.32070 | 40.74026 | 28638 ft | 527 kts | 69° |
| 2026-04-29 10:28 | 23.33364 | 40.77765 | 28863 ft | 530 kts | 68° |
| 2026-04-29 10:28 | 23.34672 | 40.81524 | 29073 ft | 532 kts | 68° |
| 2026-04-29 10:29 | 23.35985 | 40.85297 | 29277 ft | 535 kts | 68° |
| 2026-04-29 10:29 | 23.37287 | 40.89046 | 29495 ft | 537 kts | 68° |
| 2026-04-29 10:29 | 23.38608 | 40.92856 | 29692 ft | 540 kts | 68° |
| 2026-04-29 10:29 | 23.39935 | 40.96689 | 29902 ft | 542 kts | 68° |
| 2026-04-29 10:30 | 23.41267 | 41.00542 | 30084 ft | 545 kts | 68° |
| 2026-04-29 10:30 | 23.42601 | 41.04405 | 30307 ft | 546 kts | 69° |
| 2026-04-29 10:30 | 23.43934 | 41.08267 | 30533 ft | 547 kts | 69° |
| 2026-04-29 10:30 | 23.44845 | 41.10907 | 30675 ft | 548 kts | 69° |
| 2026-04-29 10:31 | 23.46167 | 41.14741 | 30903 ft | 549 kts | 69° |
| 2026-04-29 10:31 | 23.47513 | 41.18648 | 31112 ft | 551 kts | 69° |
| 2026-04-29 10:31 | 23.48859 | 41.22562 | 31337 ft | 552 kts | 69° |
| 2026-04-29 10:31 | 23.50209 | 41.26489 | 31531 ft | 554 kts | 69° |
| 2026-04-29 10:32 | 23.51562 | 41.30428 | 31763 ft | 555 kts | 69° |
| 2026-04-29 10:32 | 23.52918 | 41.34378 | 31965 ft | 557 kts | 69° |
| 2026-04-29 10:32 | 23.54274 | 41.38333 | 32166 ft | 558 kts | 69° |
| 2026-04-29 10:32 | 23.55634 | 41.42302 | 32336 ft | 560 kts | 69° |
| 2026-04-29 10:33 | 23.57000 | 41.46293 | 32507 ft | 561 kts | 69° |
| 2026-04-29 10:33 | 23.58364 | 41.50284 | 32661 ft | 562 kts | 69° |
| 2026-04-29 10:33 | 23.59730 | 41.54285 | 32826 ft | 563 kts | 69° |
| 2026-04-29 10:33 | 23.61098 | 41.58295 | 32929 ft | 564 kts | 69° |
| 2026-04-29 10:34 | 23.62465 | 41.62305 | 33052 ft | 565 kts | 69° |
| 2026-04-29 10:34 | 23.65204 | 41.70353 | 33246 ft | 566 kts | 69° |
| 2026-04-29 10:35 | 23.67937 | 41.78430 | 33412 ft | 568 kts | 70° |
| 2026-04-29 10:35 | 23.70512 | 41.86534 | 33604 ft | 568 kts | 70° |
| 2026-04-29 10:35 | 23.71791 | 41.90604 | 33711 ft | 568 kts | 70° |
| 2026-04-29 10:36 | 23.73094 | 41.94734 | 33828 ft | 568 kts | 70° |
| 2026-04-29 10:36 | 23.74368 | 41.98755 | 33929 ft | 567 kts | 70° |
| 2026-04-29 10:36 | 23.75691 | 42.02816 | 34021 ft | 567 kts | 69° |
| 2026-04-29 10:36 | 23.77075 | 42.06843 | 34138 ft | 566 kts | 68° |
| 2026-04-29 10:37 | 23.78472 | 42.10858 | 34240 ft | 566 kts | 68° |
| 2026-04-29 10:37 | 23.81243 | 42.18893 | 34452 ft | 565 kts | 69° |
| 2026-04-29 10:38 | 23.83988 | 42.26934 | 34646 ft | 563 kts | 69° |
| 2026-04-29 10:38 | 23.85351 | 42.30942 | 34759 ft | 563 kts | 69° |
| 2026-04-29 10:38 | 23.86713 | 42.34951 | 34854 ft | 563 kts | 69° |
| 2026-04-29 10:39 | 23.89433 | 42.42963 | 34899 ft | 561 kts | 70° |
| 2026-04-29 10:39 | 23.92136 | 42.50931 | 34910 ft | 558 kts | 70° |
| 2026-04-29 10:40 | 23.94812 | 42.58851 | 34909 ft | 559 kts | 70° |
| 2026-04-29 10:40 | 23.97501 | 42.66822 | 34908 ft | 558 kts | 70° |
| 2026-04-29 10:41 | 24.00183 | 42.74789 | 34909 ft | 558 kts | 70° |
| 2026-04-29 10:41 | 24.02838 | 42.82779 | 34906 ft | 558 kts | 73° |
| 2026-04-29 10:41 | 24.03692 | 42.86908 | 34909 ft | 556 kts | 84° |
| 2026-04-29 10:42 | 24.03902 | 42.91108 | 34912 ft | 552 kts | 95° |
| 2026-04-29 10:42 | 24.03467 | 42.95249 | 34908 ft | 545 kts | 107° |
| 2026-04-29 10:42 | 24.02461 | 42.99224 | 34912 ft | 539 kts | 114° |
| 2026-04-29 10:43 | 24.00027 | 43.06962 | 34910 ft | 538 kts | 114° |
| 2026-04-29 10:43 | 23.97758 | 43.14777 | 34912 ft | 539 kts | 112° |
| 2026-04-29 10:44 | 23.95617 | 43.22586 | 34908 ft | 539 kts | 111° |
| 2026-04-29 10:44 | 23.93480 | 43.30432 | 34905 ft | 538 kts | 111° |
| 2026-04-29 10:45 | 23.91338 | 43.38275 | 34902 ft | 538 kts | 111° |
| 2026-04-29 10:45 | 23.89195 | 43.46090 | 34897 ft | 537 kts | 111° |
| 2026-04-29 10:46 | 23.87047 | 43.53907 | 34896 ft | 537 kts | 111° |
| 2026-04-29 10:46 | 23.84894 | 43.61723 | 34891 ft | 536 kts | 111° |
| 2026-04-29 10:47 | 23.82738 | 43.69536 | 34886 ft | 536 kts | 111° |
| 2026-04-29 10:47 | 23.80583 | 43.77327 | 34881 ft | 536 kts | 112° |
| 2026-04-29 10:48 | 23.78425 | 43.85120 | 34877 ft | 536 kts | 111° |
| 2026-04-29 10:48 | 23.77030 | 43.93160 | 34872 ft | 544 kts | 98° |
| 2026-04-29 10:49 | 23.76464 | 44.01356 | 34869 ft | 544 kts | 98° |
| 2026-04-29 10:49 | 23.75856 | 44.09582 | 34867 ft | 543 kts | 98° |
| 2026-04-29 10:50 | 23.75237 | 44.17813 | 34866 ft | 543 kts | 98° |
| 2026-04-29 10:50 | 23.74616 | 44.26021 | 34862 ft | 542 kts | 98° |
| 2026-04-29 10:51 | 23.73993 | 44.34217 | 34863 ft | 541 kts | 98° |
| 2026-04-29 10:51 | 23.73366 | 44.42400 | 34862 ft | 541 kts | 98° |
| 2026-04-29 10:52 | 23.72735 | 44.50576 | 34864 ft | 540 kts | 98° |
| 2026-04-29 10:52 | 23.72101 | 44.58736 | 34863 ft | 540 kts | 98° |
| 2026-04-29 10:53 | 23.71468 | 44.66843 | 34862 ft | 539 kts | 98° |
| 2026-04-29 10:53 | 23.70825 | 44.74997 | 34859 ft | 539 kts | 98° |
| 2026-04-29 10:54 | 23.70179 | 44.83154 | 34859 ft | 539 kts | 98° |
| 2026-04-29 10:54 | 23.69529 | 44.91301 | 34854 ft | 539 kts | 98° |
| 2026-04-29 10:55 | 23.68874 | 44.99447 | 34857 ft | 539 kts | 98° |
| 2026-04-29 10:55 | 23.68214 | 45.07605 | 34849 ft | 539 kts | 98° |
| 2026-04-29 10:56 | 23.67551 | 45.15748 | 34847 ft | 539 kts | 98° |
| 2026-04-29 10:56 | 23.66882 | 45.23897 | 34845 ft | 540 kts | 98° |
| 2026-04-29 10:57 | 23.66210 | 45.32052 | 34842 ft | 540 kts | 98° |
| 2026-04-29 10:57 | 23.65532 | 45.40214 | 34842 ft | 540 kts | 98° |
| 2026-04-29 10:58 | 23.64850 | 45.48382 | 34842 ft | 540 kts | 98° |
| 2026-04-29 10:58 | 23.64164 | 45.56534 | 34844 ft | 540 kts | 98° |
| 2026-04-29 10:59 | 23.63479 | 45.64649 | 34841 ft | 539 kts | 98° |
| 2026-04-29 10:59 | 23.62785 | 45.72785 | 34844 ft | 539 kts | 98° |
| 2026-04-29 11:00 | 23.62086 | 45.80936 | 34846 ft | 539 kts | 98° |
| 2026-04-29 11:00 | 23.61384 | 45.89084 | 34848 ft | 539 kts | 98° |
| 2026-04-29 11:01 | 23.60679 | 45.97211 | 34857 ft | 538 kts | 98° |
| 2026-04-29 11:01 | 23.59969 | 46.05335 | 34863 ft | 537 kts | 98° |
| 2026-04-29 11:02 | 23.59255 | 46.13452 | 34868 ft | 537 kts | 98° |
| 2026-04-29 11:02 | 23.58544 | 46.21515 | 34873 ft | 537 kts | 98° |
| 2026-04-29 11:03 | 23.57821 | 46.29615 | 34879 ft | 537 kts | 98° |
| 2026-04-29 11:03 | 23.57097 | 46.37710 | 34882 ft | 536 kts | 98° |
| 2026-04-29 11:04 | 23.56370 | 46.45796 | 34885 ft | 536 kts | 99° |
| 2026-04-29 11:04 | 23.55639 | 46.53882 | 34887 ft | 536 kts | 99° |
| 2026-04-29 11:05 | 23.54903 | 46.61958 | 34884 ft | 535 kts | 99° |
| 2026-04-29 11:05 | 23.54167 | 46.70010 | 34878 ft | 533 kts | 99° |
| 2026-04-29 11:06 | 23.53432 | 46.77999 | 34872 ft | 532 kts | 99° |
| 2026-04-29 11:06 | 23.52687 | 46.86029 | 34867 ft | 532 kts | 99° |
| 2026-04-29 11:07 | 23.51940 | 46.94053 | 34861 ft | 531 kts | 99° |
| 2026-04-29 11:07 | 23.51178 | 47.02093 | 34862 ft | 538 kts | 97° |
| 2026-04-29 11:08 | 23.50411 | 47.10270 | 34847 ft | 545 kts | 97° |
| 2026-04-29 11:08 | 23.49636 | 47.18502 | 34844 ft | 546 kts | 97° |
| 2026-04-29 11:09 | 23.48852 | 47.26733 | 34844 ft | 546 kts | 97° |
| 2026-04-29 11:09 | 23.48065 | 47.34953 | 34837 ft | 545 kts | 97° |
| 2026-04-29 11:10 | 23.47277 | 47.43122 | 34836 ft | 545 kts | 97° |
| 2026-04-29 11:10 | 23.46482 | 47.51334 | 34834 ft | 545 kts | 97° |
| 2026-04-29 11:11 | 23.45682 | 47.59550 | 34829 ft | 545 kts | 97° |
| 2026-04-29 11:11 | 23.44879 | 47.67750 | 34824 ft | 544 kts | 97° |
| 2026-04-29 11:12 | 23.44072 | 47.75950 | 34822 ft | 544 kts | 97° |
| 2026-04-29 11:12 | 23.43261 | 47.84147 | 34817 ft | 544 kts | 97° |
| 2026-04-29 11:13 | 23.42446 | 47.92334 | 34815 ft | 544 kts | 97° |
| 2026-04-29 11:13 | 23.41767 | 47.99129 | 34809 ft | 543 kts | 97° |
| 2026-04-29 11:14 | 23.40810 | 48.08649 | 34807 ft | 543 kts | 97° |
| 2026-04-29 11:14 | 23.40118 | 48.15502 | 34801 ft | 543 kts | 97° |
| 2026-04-29 11:15 | 23.39289 | 48.23667 | 34798 ft | 543 kts | 97° |
| 2026-04-29 11:15 | 23.38101 | 48.31750 | 34790 ft | 540 kts | 108° |
| 2026-04-29 11:16 | 23.35258 | 48.39172 | 34792 ft | 533 kts | 124° |
| 2026-04-29 11:16 | 23.31280 | 48.45950 | 34788 ft | 530 kts | 126° |
| 2026-04-29 11:17 | 23.27316 | 48.52710 | 34791 ft | 530 kts | 126° |
| 2026-04-29 11:17 | 23.23355 | 48.59473 | 34782 ft | 529 kts | 126° |
| 2026-04-29 11:18 | 23.19391 | 48.66222 | 34780 ft | 529 kts | 126° |
| 2026-04-29 11:18 | 23.15431 | 48.72954 | 34773 ft | 528 kts | 126° |
| 2026-04-29 11:19 | 23.11467 | 48.79683 | 34766 ft | 528 kts | 126° |
| 2026-04-29 11:19 | 23.07506 | 48.86401 | 34765 ft | 528 kts | 126° |
| 2026-04-29 11:20 | 23.03544 | 48.93110 | 34759 ft | 527 kts | 126° |
| 2026-04-29 11:20 | 23.00309 | 49.00282 | 34759 ft | 534 kts | 110° |
| 2026-04-29 11:21 | 22.98984 | 49.08220 | 34759 ft | 537 kts | 94° |
| 2026-04-29 11:21 | 22.98517 | 49.16138 | 34749 ft | 523 kts | 96° |
| 2026-04-29 11:22 | 22.97992 | 49.24027 | 34747 ft | 526 kts | 96° |
| 2026-04-29 11:22 | 22.97462 | 49.31936 | 34745 ft | 525 kts | 96° |
| 2026-04-29 11:23 | 22.96930 | 49.39850 | 34746 ft | 525 kts | 96° |
| 2026-04-29 11:23 | 22.96395 | 49.47742 | 34747 ft | 524 kts | 96° |
| 2026-04-29 11:24 | 22.95859 | 49.55576 | 34740 ft | 524 kts | 96° |
| 2026-04-29 11:24 | 22.95315 | 49.63467 | 34745 ft | 524 kts | 96° |
| 2026-04-29 11:25 | 22.94768 | 49.71344 | 34747 ft | 523 kts | 96° |
| 2026-04-29 11:25 | 22.94218 | 49.79213 | 34744 ft | 523 kts | 96° |
| 2026-04-29 11:26 | 22.93385 | 49.91031 | 34745 ft | 523 kts | 96° |
| 2026-04-29 11:26 | 22.92825 | 49.98901 | 34741 ft | 522 kts | 96° |
| 2026-04-29 11:27 | 22.92261 | 50.06760 | 34739 ft | 522 kts | 96° |
| 2026-04-29 11:27 | 22.91694 | 50.14611 | 34743 ft | 522 kts | 96° |
| 2026-04-29 11:28 | 22.91123 | 50.22468 | 34739 ft | 522 kts | 96° |
| 2026-04-29 11:28 | 22.90548 | 50.30316 | 34737 ft | 522 kts | 96° |
| 2026-04-29 11:29 | 22.89973 | 50.38112 | 34738 ft | 522 kts | 96° |
| 2026-04-29 11:29 | 22.89391 | 50.45961 | 34739 ft | 521 kts | 96° |
| 2026-04-29 11:30 | 22.88805 | 50.53801 | 34734 ft | 521 kts | 96° |
| 2026-04-29 11:30 | 22.88216 | 50.61630 | 34735 ft | 521 kts | 96° |
| 2026-04-29 11:31 | 22.87624 | 50.69459 | 34734 ft | 521 kts | 96° |
| 2026-04-29 11:31 | 22.87028 | 50.77286 | 34729 ft | 521 kts | 96° |
| 2026-04-29 11:32 | 22.86431 | 50.85068 | 34731 ft | 520 kts | 96° |
| 2026-04-29 11:32 | 22.85828 | 50.92884 | 34729 ft | 520 kts | 96° |
| 2026-04-29 11:33 | 22.85221 | 51.00697 | 34729 ft | 519 kts | 96° |
| 2026-04-29 11:33 | 22.84612 | 51.08494 | 34731 ft | 519 kts | 96° |
| 2026-04-29 11:34 | 22.83999 | 51.16286 | 34727 ft | 519 kts | 96° |
| 2026-04-29 11:34 | 22.83383 | 51.24076 | 34727 ft | 519 kts | 96° |
| 2026-04-29 11:35 | 22.82762 | 51.31877 | 34727 ft | 518 kts | 96° |
| 2026-04-29 11:35 | 22.82138 | 51.39666 | 34726 ft | 518 kts | 96° |
| 2026-04-29 11:36 | 22.81511 | 51.47448 | 34723 ft | 518 kts | 96° |
| 2026-04-29 11:36 | 22.80880 | 51.55228 | 34722 ft | 518 kts | 96° |
| 2026-04-29 11:37 | 22.80245 | 51.63008 | 34728 ft | 518 kts | 96° |
| 2026-04-29 11:37 | 22.79610 | 51.70747 | 34727 ft | 518 kts | 96° |
| 2026-04-29 11:38 | 22.78968 | 51.78523 | 34724 ft | 518 kts | 96° |
| 2026-04-29 11:38 | 22.78323 | 51.86290 | 34725 ft | 518 kts | 96° |
| 2026-04-29 11:39 | 22.77673 | 51.94064 | 34718 ft | 518 kts | 96° |
| 2026-04-29 11:39 | 22.77021 | 52.01828 | 34729 ft | 518 kts | 96° |
| 2026-04-29 11:40 | 22.76364 | 52.09592 | 34730 ft | 517 kts | 96° |
| 2026-04-29 11:40 | 22.75704 | 52.17362 | 34730 ft | 517 kts | 96° |
| 2026-04-29 11:41 | 22.75039 | 52.25139 | 34727 ft | 517 kts | 96° |
| 2026-04-29 11:41 | 22.74372 | 52.32897 | 34730 ft | 517 kts | 96° |
| 2026-04-29 11:42 | 22.73701 | 52.40649 | 34729 ft | 517 kts | 96° |
| 2026-04-29 11:42 | 22.73029 | 52.48371 | 34729 ft | 517 kts | 96° |
| 2026-04-29 11:43 | 22.72352 | 52.56122 | 34868 ft | 517 kts | 96° |
| 2026-04-29 11:43 | 22.72011 | 52.60001 | 35011 ft | 516 kts | 96° |
| 2026-04-29 11:43 | 22.71671 | 52.63870 | 35152 ft | 516 kts | 96° |
| 2026-04-29 11:44 | 22.71330 | 52.67733 | 35282 ft | 515 kts | 97° |
| 2026-04-29 11:44 | 22.70988 | 52.71594 | 35432 ft | 515 kts | 97° |
| 2026-04-29 11:44 | 22.70645 | 52.75456 | 35574 ft | 514 kts | 97° |
| 2026-04-29 11:44 | 22.70302 | 52.79303 | 35726 ft | 513 kts | 97° |
| 2026-04-29 11:45 | 22.69958 | 52.83150 | 35890 ft | 512 kts | 97° |
| 2026-04-29 11:45 | 22.69614 | 52.86990 | 36047 ft | 512 kts | 97° |
| 2026-04-29 11:45 | 22.69270 | 52.90827 | 36200 ft | 511 kts | 97° |
| 2026-04-29 11:45 | 22.68926 | 52.94654 | 36367 ft | 510 kts | 97° |
| 2026-04-29 11:46 | 22.68585 | 52.98427 | 36526 ft | 509 kts | 97° |
| 2026-04-29 11:46 | 22.68239 | 53.02246 | 36694 ft | 509 kts | 97° |
| 2026-04-29 11:46 | 22.67547 | 53.09860 | 36730 ft | 507 kts | 97° |
| 2026-04-29 11:47 | 22.66851 | 53.17474 | 36736 ft | 507 kts | 97° |
| 2026-04-29 11:47 | 22.66152 | 53.25080 | 36735 ft | 507 kts | 97° |
| 2026-04-29 11:48 | 22.65451 | 53.32677 | 36729 ft | 507 kts | 97° |
| 2026-04-29 11:48 | 22.64746 | 53.40271 | 36730 ft | 506 kts | 97° |
| 2026-04-29 11:49 | 22.64044 | 53.47808 | 36729 ft | 506 kts | 97° |
| 2026-04-29 11:49 | 22.63333 | 53.55383 | 36725 ft | 506 kts | 97° |
| 2026-04-29 11:50 | 22.62619 | 53.62967 | 36728 ft | 506 kts | 97° |
| 2026-04-29 11:50 | 22.61900 | 53.70550 | 36730 ft | 506 kts | 97° |
| 2026-04-29 11:51 | 22.61179 | 53.78129 | 36728 ft | 506 kts | 97° |
| 2026-04-29 11:51 | 22.60454 | 53.85702 | 36727 ft | 506 kts | 97° |
| 2026-04-29 11:52 | 22.59726 | 53.93274 | 36731 ft | 506 kts | 97° |
| 2026-04-29 11:52 | 22.58995 | 54.00843 | 36731 ft | 506 kts | 97° |
| 2026-04-29 11:53 | 22.58260 | 54.08412 | 36730 ft | 505 kts | 97° |
| 2026-04-29 11:53 | 22.57526 | 54.15927 | 36735 ft | 506 kts | 97° |
| 2026-04-29 11:54 | 22.56785 | 54.23493 | 36728 ft | 506 kts | 97° |
| 2026-04-29 11:54 | 22.56040 | 54.31056 | 36730 ft | 506 kts | 97° |
| 2026-04-29 11:55 | 22.55291 | 54.38615 | 36731 ft | 506 kts | 97° |
| 2026-04-29 11:55 | 22.54538 | 54.46182 | 36726 ft | 505 kts | 97° |
| 2026-04-29 11:56 | 22.53781 | 54.53750 | 36736 ft | 505 kts | 97° |
| 2026-04-29 11:56 | 22.53021 | 54.61315 | 36734 ft | 505 kts | 97° |
| 2026-04-29 11:57 | 22.52259 | 54.68870 | 36732 ft | 505 kts | 97° |
| 2026-04-29 11:57 | 22.51497 | 54.76383 | 36729 ft | 505 kts | 97° |
| 2026-04-29 11:58 | 22.50853 | 54.82711 | 36729 ft | 505 kts | 97° |
| 2026-04-29 11:58 | 22.50080 | 54.90260 | 36734 ft | 505 kts | 97° |
| 2026-04-29 11:59 | 22.49309 | 54.97755 | 36734 ft | 505 kts | 97° |
| 2026-04-29 11:59 | 22.48529 | 55.05313 | 36739 ft | 505 kts | 97° |
| 2026-04-29 12:00 | 22.47747 | 55.12865 | 36740 ft | 505 kts | 97° |
| 2026-04-29 12:00 | 22.46964 | 55.20413 | 36739 ft | 505 kts | 97° |
| 2026-04-29 12:01 | 22.46051 | 55.29169 | 36743 ft | 504 kts | 97° |
| 2026-04-29 12:01 | 22.45804 | 55.35514 | 36745 ft | 505 kts | 86° |
| 2026-04-29 12:02 | 22.47222 | 55.42945 | 36742 ft | 506 kts | 70° |
| 2026-04-29 12:02 | 22.49870 | 55.49993 | 36745 ft | 506 kts | 67° |
| 2026-04-29 12:03 | 22.52509 | 55.57000 | 36752 ft | 506 kts | 68° |
| 2026-04-29 12:03 | 22.55153 | 55.64065 | 36756 ft | 507 kts | 68° |
| 2026-04-29 12:04 | 22.57799 | 55.71139 | 36754 ft | 507 kts | 68° |
| 2026-04-29 12:04 | 22.60441 | 55.78213 | 36759 ft | 507 kts | 68° |
| 2026-04-29 12:05 | 22.63086 | 55.85303 | 36771 ft | 507 kts | 68° |
| 2026-04-29 12:05 | 22.65724 | 55.92389 | 36774 ft | 507 kts | 68° |
| 2026-04-29 12:06 | 22.68363 | 55.99485 | 36780 ft | 507 kts | 68° |
| 2026-04-29 12:06 | 22.70995 | 56.06574 | 36780 ft | 507 kts | 68° |
| 2026-04-29 12:07 | 22.73626 | 56.13674 | 36786 ft | 507 kts | 68° |
| 2026-04-29 12:07 | 22.76254 | 56.20776 | 36790 ft | 507 kts | 68° |
| 2026-04-29 12:08 | 22.78876 | 56.27873 | 36793 ft | 507 kts | 68° |
| 2026-04-29 12:08 | 22.81479 | 56.34929 | 36744 ft | 507 kts | 68° |
| 2026-04-29 12:09 | 22.83543 | 56.42236 | 36744 ft | 507 kts | 78° |
| 2026-04-29 12:09 | 22.84935 | 56.49740 | 36747 ft | 508 kts | 78° |
| 2026-04-29 12:10 | 22.86366 | 56.57248 | 36756 ft | 508 kts | 78° |
| 2026-04-29 12:10 | 22.87793 | 56.64749 | 36758 ft | 508 kts | 78° |
| 2026-04-29 12:11 | 22.89212 | 56.72255 | 36762 ft | 508 kts | 78° |
| 2026-04-29 12:11 | 22.90628 | 56.79761 | 36775 ft | 508 kts | 78° |
| 2026-04-29 12:12 | 22.92039 | 56.87269 | 36785 ft | 508 kts | 78° |
| 2026-04-29 12:12 | 22.93447 | 56.94771 | 36776 ft | 507 kts | 78° |
| 2026-04-29 12:13 | 22.94851 | 57.02276 | 36776 ft | 507 kts | 78° |
| 2026-04-29 12:13 | 22.96242 | 57.09728 | 36784 ft | 507 kts | 78° |
| 2026-04-29 12:14 | 22.97634 | 57.17215 | 36783 ft | 507 kts | 78° |
| 2026-04-29 12:14 | 22.99031 | 57.24747 | 36786 ft | 507 kts | 78° |
| 2026-04-29 12:15 | 23.00173 | 57.32292 | 36786 ft | 507 kts | 85° |
| 2026-04-29 12:15 | 23.00427 | 57.39934 | 36786 ft | 507 kts | 88° |
| 2026-04-29 12:16 | 23.00666 | 57.47593 | 36783 ft | 507 kts | 88° |
| 2026-04-29 12:16 | 23.00908 | 57.55266 | 36786 ft | 508 kts | 88° |
| 2026-04-29 12:17 | 23.01142 | 57.62923 | 36785 ft | 508 kts | 88° |
| 2026-04-29 12:17 | 23.01371 | 57.70544 | 36789 ft | 507 kts | 88° |
| 2026-04-29 12:18 | 23.01596 | 57.78188 | 36779 ft | 507 kts | 88° |
| 2026-04-29 12:18 | 23.01819 | 57.85852 | 36773 ft | 507 kts | 88° |
| 2026-04-29 12:19 | 23.01865 | 57.93513 | 36776 ft | 508 kts | 90° |
| 2026-04-29 12:19 | 23.01825 | 58.01184 | 36768 ft | 508 kts | 90° |
| 2026-04-29 12:20 | 23.01811 | 58.08872 | 36767 ft | 508 kts | 90° |
| 2026-04-29 12:20 | 23.01806 | 58.16497 | 36767 ft | 508 kts | 90° |
| 2026-04-29 12:21 | 23.01799 | 58.24172 | 36764 ft | 508 kts | 90° |
| 2026-04-29 12:21 | 23.01787 | 58.31847 | 36763 ft | 508 kts | 90° |
| 2026-04-29 12:22 | 23.01780 | 58.39519 | 36766 ft | 508 kts | 89° |
| 2026-04-29 12:22 | 23.02043 | 58.47191 | 36768 ft | 508 kts | 87° |
| 2026-04-29 12:23 | 23.02350 | 58.54841 | 36764 ft | 507 kts | 88° |
| 2026-04-29 12:23 | 23.02617 | 58.62458 | 36766 ft | 507 kts | 88° |
| 2026-04-29 12:24 | 23.02868 | 58.70117 | 36763 ft | 508 kts | 88° |
| 2026-04-29 12:24 | 23.03116 | 58.77785 | 36765 ft | 508 kts | 88° |
| 2026-04-29 12:25 | 23.03359 | 58.85446 | 36768 ft | 508 kts | 88° |
| 2026-04-29 12:26 | 23.03716 | 58.96954 | 36769 ft | 508 kts | 88° |
| 2026-04-29 12:26 | 23.03948 | 59.04626 | 36772 ft | 508 kts | 88° |
| 2026-04-29 12:27 | 23.04174 | 59.12298 | 36767 ft | 508 kts | 88° |
| 2026-04-29 12:27 | 23.04397 | 59.19975 | 36765 ft | 508 kts | 88° |
| 2026-04-29 12:28 | 23.04615 | 59.27601 | 36755 ft | 508 kts | 88° |
| 2026-04-29 12:28 | 23.04831 | 59.35283 | 36748 ft | 508 kts | 88° |
| 2026-04-29 12:29 | 23.05006 | 59.42961 | 36745 ft | 508 kts | 89° |
| 2026-04-29 12:29 | 23.05109 | 59.50630 | 36743 ft | 509 kts | 89° |
| 2026-04-29 12:30 | 23.05218 | 59.58310 | 36738 ft | 509 kts | 89° |
| 2026-04-29 12:30 | 23.05331 | 59.65994 | 36742 ft | 509 kts | 89° |
| 2026-04-29 12:31 | 23.05441 | 59.73640 | 36743 ft | 509 kts | 89° |
| 2026-04-29 12:31 | 23.05548 | 59.81328 | 36743 ft | 509 kts | 89° |
| 2026-04-29 12:32 | 23.05651 | 59.89038 | 36749 ft | 509 kts | 89° |
| 2026-04-29 12:32 | 23.05750 | 59.96726 | 36749 ft | 509 kts | 89° |
| 2026-04-29 12:33 | 23.05844 | 60.04377 | 36746 ft | 509 kts | 89° |
| 2026-04-29 12:33 | 23.05935 | 60.12064 | 36749 ft | 509 kts | 89° |
| 2026-04-29 12:34 | 23.06022 | 60.19750 | 36747 ft | 509 kts | 89° |
| 2026-04-29 12:34 | 23.06106 | 60.27447 | 36744 ft | 509 kts | 89° |
| 2026-04-29 12:35 | 23.06186 | 60.35150 | 36750 ft | 509 kts | 89° |
| 2026-04-29 12:35 | 23.06262 | 60.42841 | 36749 ft | 510 kts | 89° |
| 2026-04-29 12:36 | 23.06334 | 60.50533 | 36749 ft | 510 kts | 89° |
| 2026-04-29 12:36 | 23.06402 | 60.58190 | 36750 ft | 510 kts | 89° |
| 2026-04-29 12:37 | 23.06467 | 60.65890 | 36747 ft | 510 kts | 89° |
| 2026-04-29 12:37 | 23.06530 | 60.73596 | 36753 ft | 510 kts | 89° |
| 2026-04-29 12:38 | 23.06589 | 60.81300 | 36752 ft | 510 kts | 89° |
| 2026-04-29 12:38 | 23.06644 | 60.88998 | 36745 ft | 510 kts | 89° |
| 2026-04-29 12:39 | 23.06696 | 60.96712 | 36748 ft | 510 kts | 89° |
| 2026-04-29 12:39 | 23.06743 | 61.04414 | 36745 ft | 510 kts | 89° |
| 2026-04-29 12:40 | 23.06780 | 61.10822 | 36743 ft | 510 kts | 89° |
| 2026-04-29 12:40 | 23.06821 | 61.18534 | 36752 ft | 510 kts | 89° |
| 2026-04-29 12:41 | 23.06858 | 61.26250 | 36747 ft | 511 kts | 88° |
| 2026-04-29 12:41 | 23.06897 | 61.35215 | 36746 ft | 511 kts | 88° |
| 2026-04-29 12:42 | 23.06921 | 61.41689 | 36747 ft | 511 kts | 88° |
| 2026-04-29 12:42 | 23.06947 | 61.49354 | 36746 ft | 511 kts | 88° |
| 2026-04-29 12:43 | 23.06968 | 61.57088 | 36747 ft | 511 kts | 89° |
| 2026-04-29 12:43 | 23.06985 | 61.64815 | 36743 ft | 511 kts | 88° |
| 2026-04-29 12:44 | 23.06998 | 61.72535 | 36745 ft | 511 kts | 88° |
| 2026-04-29 12:44 | 23.07005 | 61.80268 | 36749 ft | 511 kts | 89° |
| 2026-04-29 12:45 | 23.07009 | 61.88009 | 36746 ft | 512 kts | 88° |
| 2026-04-29 12:45 | 23.07018 | 61.95674 | 38330 ft | 494 kts | 90° |
| 2026-04-29 12:45 | 23.07021 | 61.99316 | 37952 ft | 484 kts | 90° |
| 2026-04-29 12:46 | 23.07020 | 62.02932 | 37581 ft | 475 kts | 90° |
| 2026-04-29 12:46 | 23.07016 | 62.06502 | 37212 ft | 471 kts | 90° |
| 2026-04-29 12:46 | 23.07011 | 62.10059 | 37005 ft | 471 kts | 90° |
| 2026-04-29 12:47 | 23.07001 | 62.17250 | 37001 ft | 479 kts | 90° |
| 2026-04-29 12:47 | 23.06988 | 62.24481 | 37000 ft | 478 kts | 90° |
| 2026-04-29 12:48 | 23.06973 | 62.31712 | 37000 ft | 478 kts | 90° |
| 2026-04-29 12:48 | 23.06953 | 62.38931 | 37000 ft | 478 kts | 90° |
| 2026-04-29 12:49 | 23.06931 | 62.46159 | 37000 ft | 478 kts | 90° |
| 2026-04-29 12:49 | 23.06905 | 62.53389 | 37000 ft | 478 kts | 90° |
| 2026-04-29 12:50 | 23.06876 | 62.60567 | 37000 ft | 478 kts | 90° |
| 2026-04-29 12:50 | 23.06844 | 62.67796 | 37000 ft | 478 kts | 90° |
| 2026-04-29 12:51 | 23.06808 | 62.75021 | 37000 ft | 478 kts | 90° |
| 2026-04-29 12:51 | 23.06769 | 62.82251 | 37000 ft | 478 kts | 90° |
| 2026-04-29 12:52 | 23.06727 | 62.89482 | 37000 ft | 478 kts | 90° |
| 2026-04-29 12:52 | 23.06681 | 62.96709 | 37001 ft | 478 kts | 90° |
| 2026-04-29 12:53 | 23.06632 | 63.03890 | 37000 ft | 478 kts | 90° |
| 2026-04-29 12:53 | 23.06579 | 63.11114 | 37001 ft | 478 kts | 90° |
| 2026-04-29 12:54 | 23.06524 | 63.18340 | 37000 ft | 478 kts | 90° |
| 2026-04-29 12:54 | 23.06464 | 63.25573 | 37000 ft | 478 kts | 91° |
| 2026-04-29 12:55 | 23.06387 | 63.32800 | 35515 ft | 478 kts | 88° |
| 2026-04-29 12:55 | 23.06350 | 63.36406 | 35859 ft | 476 kts | 88° |
| 2026-04-29 12:55 | 23.06318 | 63.39990 | 36212 ft | 474 kts | 88° |
| 2026-04-29 12:55 | 23.06287 | 63.43561 | 36583 ft | 471 kts | 88° |
| 2026-04-29 12:56 | 23.06255 | 63.47118 | 36731 ft | 474 kts | 88° |
| 2026-04-29 12:56 | 23.06187 | 63.54373 | 36745 ft | 487 kts | 88° |
| 2026-04-29 12:57 | 23.06110 | 63.61830 | 36742 ft | 500 kts | 88° |
| 2026-04-29 12:57 | 23.06027 | 63.69409 | 36739 ft | 510 kts | 88° |
| 2026-04-29 12:58 | 23.05938 | 63.77144 | 36743 ft | 512 kts | 88° |
| 2026-04-29 12:58 | 23.05845 | 63.84884 | 36735 ft | 512 kts | 89° |
| 2026-04-29 12:59 | 23.05221 | 63.92613 | 36739 ft | 514 kts | 95° |
| 2026-04-29 12:59 | 23.04432 | 64.00321 | 36738 ft | 514 kts | 94° |
| 2026-04-29 13:00 | 23.03649 | 64.08055 | 36736 ft | 514 kts | 94° |
| 2026-04-29 13:00 | 23.02865 | 64.15725 | 36738 ft | 514 kts | 94° |
| 2026-04-29 13:01 | 23.02071 | 64.23435 | 36739 ft | 514 kts | 94° |
| 2026-04-29 13:01 | 23.01273 | 64.31155 | 36734 ft | 514 kts | 94° |
| 2026-04-29 13:02 | 23.00471 | 64.38868 | 36740 ft | 514 kts | 94° |
| 2026-04-29 13:02 | 22.99664 | 64.46595 | 36743 ft | 514 kts | 94° |
| 2026-04-29 13:03 | 22.98855 | 64.54304 | 36743 ft | 514 kts | 94° |
| 2026-04-29 13:03 | 22.98042 | 64.62017 | 36741 ft | 514 kts | 94° |
| 2026-04-29 13:04 | 22.97225 | 64.69730 | 36741 ft | 514 kts | 94° |
| 2026-04-29 13:04 | 22.96408 | 64.77401 | 36741 ft | 514 kts | 94° |
| 2026-04-29 13:05 | 22.95763 | 64.85109 | 36742 ft | 512 kts | 88° |
| 2026-04-29 13:05 | 22.95834 | 64.92827 | 36742 ft | 511 kts | 86° |
| 2026-04-29 13:06 | 22.95886 | 65.00547 | 36741 ft | 511 kts | 87° |
| 2026-04-29 13:06 | 22.95927 | 65.08267 | 36739 ft | 511 kts | 87° |
| 2026-04-29 13:07 | 22.95964 | 65.16002 | 36741 ft | 512 kts | 87° |
| 2026-04-29 13:07 | 22.95997 | 65.23728 | 36746 ft | 512 kts | 87° |
| 2026-04-29 13:08 | 22.96027 | 65.31399 | 36745 ft | 512 kts | 87° |
| 2026-04-29 13:08 | 22.96054 | 65.39132 | 36741 ft | 512 kts | 87° |
| 2026-04-29 13:09 | 22.96076 | 65.46862 | 36738 ft | 512 kts | 87° |
| 2026-04-29 13:09 | 22.96095 | 65.54591 | 36742 ft | 512 kts | 87° |
| 2026-04-29 13:10 | 22.96111 | 65.62319 | 36741 ft | 512 kts | 87° |
| 2026-04-29 13:10 | 22.96122 | 65.70049 | 36742 ft | 512 kts | 87° |
| 2026-04-29 13:11 | 22.96130 | 65.77777 | 36743 ft | 512 kts | 87° |
| 2026-04-29 13:11 | 22.96134 | 65.85509 | 36741 ft | 512 kts | 87° |
| 2026-04-29 13:12 | 22.96134 | 65.93245 | 36740 ft | 512 kts | 87° |
| 2026-04-29 13:12 | 22.96130 | 66.00924 | 36740 ft | 512 kts | 87° |
| 2026-04-29 13:13 | 22.96123 | 66.08662 | 36744 ft | 512 kts | 87° |
| 2026-04-29 13:13 | 22.96112 | 66.16397 | 36745 ft | 512 kts | 87° |
| 2026-04-29 13:14 | 22.96097 | 66.24137 | 36744 ft | 513 kts | 87° |
| 2026-04-29 13:14 | 22.96079 | 66.31876 | 36740 ft | 513 kts | 87° |
| 2026-04-29 13:15 | 22.96056 | 66.39582 | 36741 ft | 513 kts | 87° |
| 2026-04-29 13:15 | 22.96031 | 66.47336 | 36740 ft | 513 kts | 87° |
| 2026-04-29 13:16 | 22.96001 | 66.55086 | 36742 ft | 513 kts | 87° |
| 2026-04-29 13:16 | 22.95967 | 66.62836 | 36742 ft | 514 kts | 87° |
| 2026-04-29 13:17 | 22.95930 | 66.70591 | 36742 ft | 514 kts | 87° |
| 2026-04-29 13:17 | 22.95889 | 66.78343 | 36743 ft | 514 kts | 87° |
| 2026-04-29 13:18 | 22.95844 | 66.86115 | 36744 ft | 514 kts | 87° |
| 2026-04-29 13:18 | 22.95796 | 66.93879 | 36741 ft | 514 kts | 87° |
| 2026-04-29 13:19 | 22.95772 | 67.01595 | 36743 ft | 514 kts | 86° |
| 2026-04-29 13:19 | 22.95802 | 67.09354 | 36741 ft | 514 kts | 86° |
| 2026-04-29 13:20 | 22.95824 | 67.17110 | 36741 ft | 514 kts | 86° |
| 2026-04-29 13:20 | 22.95835 | 67.24869 | 36743 ft | 514 kts | 86° |
| 2026-04-29 13:21 | 22.95841 | 67.32628 | 36743 ft | 514 kts | 86° |
| 2026-04-29 13:21 | 22.95843 | 67.40396 | 36740 ft | 514 kts | 86° |
| 2026-04-29 13:22 | 22.95842 | 67.48156 | 36741 ft | 514 kts | 86° |
| 2026-04-29 13:22 | 22.95837 | 67.55904 | 36742 ft | 514 kts | 86° |
| 2026-04-29 13:23 | 22.95828 | 67.63660 | 36740 ft | 514 kts | 86° |
| 2026-04-29 13:23 | 22.95816 | 67.71364 | 36743 ft | 514 kts | 86° |
| 2026-04-29 13:24 | 22.95800 | 67.79115 | 36743 ft | 514 kts | 86° |
| 2026-04-29 13:24 | 22.95783 | 67.85610 | 36738 ft | 514 kts | 86° |
| 2026-04-29 13:25 | 22.95777 | 67.93366 | 36738 ft | 513 kts | 86° |
| 2026-04-29 13:25 | 22.95796 | 68.04997 | 36739 ft | 514 kts | 86° |
| 2026-04-29 13:26 | 22.95799 | 68.12702 | 36742 ft | 514 kts | 86° |
| 2026-04-29 13:26 | 22.95797 | 68.20451 | 36740 ft | 514 kts | 86° |
| 2026-04-29 13:27 | 22.95791 | 68.28201 | 36738 ft | 514 kts | 86° |
| 2026-04-29 13:27 | 22.95781 | 68.35960 | 36742 ft | 514 kts | 86° |
| 2026-04-29 13:28 | 22.95441 | 68.43734 | 36742 ft | 516 kts | 90° |
| 2026-04-29 13:28 | 22.94992 | 68.51495 | 36741 ft | 516 kts | 90° |
| 2026-04-29 13:29 | 22.94545 | 68.59279 | 36744 ft | 516 kts | 90° |
| 2026-04-29 13:29 | 22.94093 | 68.67059 | 36744 ft | 516 kts | 90° |
| 2026-04-29 13:30 | 22.93636 | 68.74840 | 36743 ft | 516 kts | 90° |
| 2026-04-29 13:30 | 22.93175 | 68.82615 | 36740 ft | 516 kts | 90° |
| 2026-04-29 13:31 | 22.92710 | 68.90391 | 36744 ft | 516 kts | 90° |
| 2026-04-29 13:31 | 22.92245 | 68.98125 | 36746 ft | 516 kts | 90° |
| 2026-04-29 13:32 | 22.91773 | 69.05896 | 36744 ft | 516 kts | 90° |
| 2026-04-29 13:32 | 22.91297 | 69.13675 | 36740 ft | 516 kts | 90° |
| 2026-04-29 13:33 | 22.90817 | 69.21451 | 36745 ft | 516 kts | 90° |
| 2026-04-29 13:33 | 22.90333 | 69.29222 | 36739 ft | 516 kts | 90° |
| 2026-04-29 13:34 | 22.89846 | 69.37001 | 36745 ft | 516 kts | 90° |
| 2026-04-29 13:34 | 22.89354 | 69.44788 | 36739 ft | 517 kts | 90° |
| 2026-04-29 13:35 | 22.88862 | 69.52513 | 36741 ft | 517 kts | 90° |
| 2026-04-29 13:35 | 22.88363 | 69.60286 | 36739 ft | 517 kts | 90° |
| 2026-04-29 13:36 | 22.87861 | 69.68061 | 36737 ft | 517 kts | 90° |
| 2026-04-29 13:36 | 22.87379 | 69.75837 | 36738 ft | 517 kts | 90° |
| 2026-04-29 13:37 | 22.86940 | 69.83618 | 36734 ft | 517 kts | 90° |
| 2026-04-29 13:37 | 22.86492 | 69.91404 | 36733 ft | 517 kts | 90° |
| 2026-04-29 13:38 | 22.86033 | 69.99194 | 36731 ft | 517 kts | 90° |
| 2026-04-29 13:38 | 22.85570 | 70.06986 | 36729 ft | 517 kts | 90° |
| 2026-04-29 13:39 | 22.85104 | 70.14775 | 36734 ft | 518 kts | 90° |
| 2026-04-29 13:39 | 22.84634 | 70.22559 | 36729 ft | 518 kts | 90° |
| 2026-04-29 13:40 | 22.84163 | 70.30295 | 36730 ft | 518 kts | 90° |
| 2026-04-29 13:40 | 22.83685 | 70.38091 | 36727 ft | 518 kts | 90° |
| 2026-04-29 13:41 | 22.83203 | 70.45878 | 36731 ft | 518 kts | 90° |
| 2026-04-29 13:41 | 22.82717 | 70.53674 | 36728 ft | 518 kts | 90° |
| 2026-04-29 13:42 | 22.82227 | 70.61468 | 36729 ft | 518 kts | 90° |
| 2026-04-29 13:42 | 22.81732 | 70.69281 | 36731 ft | 518 kts | 90° |
| 2026-04-29 13:43 | 22.81235 | 70.77082 | 36726 ft | 518 kts | 90° |
| 2026-04-29 13:43 | 22.81151 | 70.84849 | 36720 ft | 512 kts | 80° |
| 2026-04-29 13:44 | 22.82202 | 70.92452 | 36720 ft | 509 kts | 75° |
| 2026-04-29 13:44 | 22.83352 | 71.00032 | 36718 ft | 509 kts | 76° |
| 2026-04-29 13:45 | 22.84475 | 71.07564 | 36715 ft | 510 kts | 76° |
| 2026-04-29 13:45 | 22.85606 | 71.15160 | 36709 ft | 510 kts | 76° |
| 2026-04-29 13:46 | 22.86735 | 71.22759 | 36707 ft | 510 kts | 76° |
| 2026-04-29 13:46 | 22.87860 | 71.30355 | 36708 ft | 510 kts | 76° |
| 2026-04-29 13:47 | 22.88982 | 71.37960 | 36697 ft | 511 kts | 76° |
| 2026-04-29 13:47 | 22.90102 | 71.45572 | 36701 ft | 511 kts | 76° |
| 2026-04-29 13:48 | 22.91211 | 71.53137 | 36695 ft | 511 kts | 76° |
| 2026-04-29 13:48 | 22.92324 | 71.60760 | 36695 ft | 511 kts | 76° |
| 2026-04-29 13:49 | 22.93433 | 71.68380 | 36687 ft | 511 kts | 76° |
| 2026-04-29 13:49 | 22.94538 | 71.75996 | 36685 ft | 511 kts | 76° |
| 2026-04-29 13:50 | 22.95642 | 71.83631 | 36691 ft | 511 kts | 76° |
| 2026-04-29 13:50 | 22.96741 | 71.91261 | 36686 ft | 512 kts | 76° |
| 2026-04-29 13:51 | 22.97837 | 71.98893 | 36671 ft | 512 kts | 76° |
| 2026-04-29 13:51 | 22.98930 | 72.06533 | 36675 ft | 512 kts | 76° |
| 2026-04-29 13:52 | 23.00021 | 72.14180 | 36689 ft | 512 kts | 76° |
| 2026-04-29 13:52 | 23.01099 | 72.21771 | 36689 ft | 512 kts | 76° |
| 2026-04-29 13:53 | 23.02183 | 72.29427 | 36683 ft | 512 kts | 76° |
| 2026-04-29 13:53 | 23.03261 | 72.37072 | 36695 ft | 512 kts | 76° |
| 2026-04-29 13:54 | 23.04338 | 72.44735 | 36699 ft | 513 kts | 76° |
| 2026-04-29 13:54 | 23.05406 | 72.52360 | 36689 ft | 513 kts | 76° |
| 2026-04-29 13:55 | 23.06476 | 72.60025 | 36687 ft | 513 kts | 76° |
| 2026-04-29 13:55 | 23.07151 | 72.67778 | 36687 ft | 518 kts | 82° |
| 2026-04-29 13:56 | 23.07579 | 72.75589 | 36689 ft | 518 kts | 81° |
| 2026-04-29 13:56 | 23.08021 | 72.83400 | 36687 ft | 518 kts | 81° |
| 2026-04-29 13:57 | 23.08456 | 72.91224 | 36683 ft | 519 kts | 81° |
| 2026-04-29 13:57 | 23.08813 | 72.97729 | 36678 ft | 519 kts | 81° |
| 2026-04-29 13:58 | 23.09308 | 73.06841 | 36676 ft | 519 kts | 81° |
| 2026-04-29 13:58 | 23.09730 | 73.14684 | 36673 ft | 520 kts | 81° |
| 2026-04-29 13:59 | 23.10148 | 73.22525 | 36673 ft | 520 kts | 81° |
| 2026-04-29 13:59 | 23.10562 | 73.30365 | 36673 ft | 520 kts | 81° |
| 2026-04-29 14:00 | 23.10973 | 73.38215 | 36669 ft | 520 kts | 81° |
| 2026-04-29 14:00 | 23.11379 | 73.46070 | 36673 ft | 520 kts | 81° |
| 2026-04-29 14:01 | 23.11781 | 73.53913 | 36677 ft | 520 kts | 81° |
| 2026-04-29 14:01 | 23.12180 | 73.61771 | 36679 ft | 520 kts | 81° |
| 2026-04-29 14:02 | 23.12573 | 73.69573 | 36679 ft | 520 kts | 81° |
| 2026-04-29 14:02 | 23.12963 | 73.77419 | 36692 ft | 520 kts | 81° |
| 2026-04-29 14:03 | 23.13350 | 73.85260 | 36691 ft | 520 kts | 81° |
| 2026-04-29 14:03 | 23.13733 | 73.93112 | 36694 ft | 520 kts | 81° |
| 2026-04-29 14:04 | 23.14111 | 74.00952 | 36701 ft | 520 kts | 81° |
| 2026-04-29 14:04 | 23.14487 | 74.08798 | 36710 ft | 519 kts | 81° |
| 2026-04-29 14:05 | 23.14858 | 74.16644 | 36719 ft | 519 kts | 81° |
| 2026-04-29 14:05 | 23.15164 | 74.23162 | 36722 ft | 519 kts | 81° |
| 2026-04-29 14:06 | 23.15527 | 74.30999 | 36733 ft | 519 kts | 81° |
| 2026-04-29 14:06 | 23.15833 | 74.38846 | 36738 ft | 520 kts | 83° |
| 2026-04-29 14:07 | 23.15963 | 74.46719 | 36743 ft | 520 kts | 83° |
| 2026-04-29 14:07 | 23.16101 | 74.54536 | 36745 ft | 520 kts | 83° |
| 2026-04-29 14:08 | 23.16255 | 74.62403 | 36747 ft | 520 kts | 83° |
| 2026-04-29 14:08 | 23.16409 | 74.70269 | 36761 ft | 520 kts | 83° |
| 2026-04-29 14:09 | 23.16561 | 74.78135 | 36766 ft | 520 kts | 83° |
| 2026-04-29 14:09 | 23.16707 | 74.86005 | 36771 ft | 520 kts | 83° |
| 2026-04-29 14:10 | 23.16849 | 74.93829 | 36776 ft | 521 kts | 83° |
| 2026-04-29 14:10 | 23.16987 | 75.01698 | 36780 ft | 521 kts | 83° |
| 2026-04-29 14:11 | 23.17123 | 75.09577 | 36795 ft | 521 kts | 83° |
| 2026-04-29 14:11 | 23.17254 | 75.17445 | 36794 ft | 521 kts | 83° |
| 2026-04-29 14:12 | 23.17381 | 75.25319 | 36797 ft | 521 kts | 83° |
| 2026-04-29 14:12 | 23.17505 | 75.33195 | 36799 ft | 521 kts | 84° |
| 2026-04-29 14:13 | 23.17624 | 75.41074 | 36802 ft | 521 kts | 84° |
| 2026-04-29 14:13 | 23.17740 | 75.48963 | 36801 ft | 521 kts | 84° |
| 2026-04-29 14:14 | 23.17851 | 75.56850 | 36802 ft | 521 kts | 84° |
| 2026-04-29 14:14 | 23.17958 | 75.64676 | 36797 ft | 521 kts | 84° |
| 2026-04-29 14:15 | 23.18061 | 75.72556 | 36798 ft | 521 kts | 84° |
| 2026-04-29 14:15 | 23.18161 | 75.80437 | 36796 ft | 521 kts | 84° |
| 2026-04-29 14:16 | 23.18257 | 75.88317 | 36794 ft | 521 kts | 84° |
| 2026-04-29 14:16 | 23.18350 | 75.96186 | 36791 ft | 521 kts | 84° |
| 2026-04-29 14:17 | 23.18690 | 76.04023 | 36783 ft | 517 kts | 79° |
| 2026-04-29 14:17 | 23.19318 | 76.11816 | 36784 ft | 517 kts | 79° |
| 2026-04-29 14:18 | 23.19923 | 76.19544 | 36782 ft | 517 kts | 79° |
| 2026-04-29 14:18 | 23.20524 | 76.27337 | 36777 ft | 517 kts | 79° |
| 2026-04-29 14:19 | 23.21120 | 76.35123 | 36780 ft | 517 kts | 79° |
| 2026-04-29 14:19 | 23.21712 | 76.42909 | 36775 ft | 517 kts | 79° |
| 2026-04-29 14:20 | 23.22301 | 76.50702 | 36772 ft | 517 kts | 79° |
| 2026-04-29 14:20 | 23.22885 | 76.58484 | 36770 ft | 516 kts | 79° |
| 2026-04-29 14:21 | 23.23465 | 76.66269 | 36772 ft | 516 kts | 79° |
| 2026-04-29 14:21 | 23.24042 | 76.74048 | 36770 ft | 516 kts | 79° |
| 2026-04-29 14:22 | 23.24615 | 76.81841 | 36769 ft | 516 kts | 79° |
| 2026-04-29 14:22 | 23.25184 | 76.89630 | 36765 ft | 516 kts | 79° |
| 2026-04-29 14:23 | 23.25749 | 76.97415 | 36757 ft | 516 kts | 79° |
| 2026-04-29 14:23 | 23.26306 | 77.05148 | 36755 ft | 516 kts | 79° |
| 2026-04-29 14:24 | 23.26864 | 77.12935 | 36752 ft | 516 kts | 79° |
| 2026-04-29 14:24 | 23.27418 | 77.20736 | 36750 ft | 516 kts | 80° |
| 2026-04-29 14:25 | 23.27968 | 77.28537 | 36751 ft | 516 kts | 80° |
| 2026-04-29 14:25 | 23.28245 | 77.36350 | 36748 ft | 521 kts | 87° |
| 2026-04-29 14:26 | 23.27890 | 77.44234 | 36749 ft | 521 kts | 87° |
| 2026-04-29 14:26 | 23.27570 | 77.52058 | 36748 ft | 521 kts | 87° |
| 2026-04-29 14:27 | 23.27246 | 77.59937 | 36745 ft | 521 kts | 87° |
| 2026-04-29 14:28 | 23.26747 | 77.71757 | 36747 ft | 521 kts | 87° |
| 2026-04-29 14:28 | 23.26409 | 77.79623 | 36746 ft | 521 kts | 88° |
| 2026-04-29 14:29 | 23.26067 | 77.87490 | 36741 ft | 521 kts | 88° |
| 2026-04-29 14:29 | 23.25723 | 77.95363 | 36749 ft | 520 kts | 88° |
| 2026-04-29 14:30 | 23.25375 | 78.03172 | 36744 ft | 520 kts | 88° |
| 2026-04-29 14:30 | 23.25021 | 78.11036 | 36742 ft | 520 kts | 88° |
| 2026-04-29 14:31 | 23.24664 | 78.18901 | 36742 ft | 520 kts | 88° |
| 2026-04-29 14:31 | 23.24302 | 78.26745 | 36740 ft | 520 kts | 88° |
| 2026-04-29 14:32 | 23.23939 | 78.34595 | 36738 ft | 519 kts | 88° |
| 2026-04-29 14:32 | 23.23572 | 78.42447 | 36739 ft | 519 kts | 88° |
| 2026-04-29 14:33 | 23.23199 | 78.50302 | 36741 ft | 519 kts | 88° |
| 2026-04-29 14:33 | 23.22826 | 78.58086 | 36742 ft | 519 kts | 88° |
| 2026-04-29 14:34 | 23.22447 | 78.65926 | 36742 ft | 519 kts | 88° |
| 2026-04-29 14:34 | 23.22064 | 78.73767 | 36734 ft | 519 kts | 88° |
| 2026-04-29 14:35 | 23.21871 | 78.81584 | 36726 ft | 516 kts | 85° |
| 2026-04-29 14:35 | 23.21815 | 78.89388 | 36734 ft | 516 kts | 85° |
| 2026-04-29 14:36 | 23.21717 | 78.97206 | 36726 ft | 517 kts | 85° |
| 2026-04-29 14:36 | 23.21597 | 79.05018 | 36730 ft | 517 kts | 85° |
| 2026-04-29 14:37 | 23.21472 | 79.12833 | 36723 ft | 517 kts | 86° |
| 2026-04-29 14:37 | 23.21344 | 79.20597 | 36723 ft | 516 kts | 86° |
| 2026-04-29 14:38 | 23.21211 | 79.28404 | 36722 ft | 516 kts | 86° |
| 2026-04-29 14:38 | 23.21074 | 79.36206 | 36731 ft | 516 kts | 86° |
| 2026-04-29 14:39 | 23.20934 | 79.43998 | 36727 ft | 515 kts | 86° |
| 2026-04-29 14:39 | 23.20789 | 79.51790 | 36726 ft | 515 kts | 86° |
| 2026-04-29 14:40 | 23.20627 | 79.59571 | 36723 ft | 515 kts | 87° |
| 2026-04-29 14:40 | 23.20289 | 79.67357 | 36722 ft | 515 kts | 88° |
| 2026-04-29 14:41 | 23.19933 | 79.75137 | 36724 ft | 514 kts | 88° |
| 2026-04-29 14:41 | 23.19595 | 79.82899 | 36721 ft | 514 kts | 88° |
| 2026-04-29 14:42 | 23.19263 | 79.90605 | 36720 ft | 513 kts | 88° |
| 2026-04-29 14:42 | 23.18926 | 79.98343 | 36729 ft | 513 kts | 88° |
| 2026-04-29 14:43 | 23.18583 | 80.06093 | 36728 ft | 512 kts | 88° |
| 2026-04-29 14:43 | 23.18201 | 80.13820 | 36720 ft | 512 kts | 89° |
| 2026-04-29 14:44 | 23.17794 | 80.21555 | 36728 ft | 511 kts | 89° |
| 2026-04-29 14:44 | 23.17390 | 80.29260 | 36725 ft | 510 kts | 89° |
| 2026-04-29 14:45 | 23.16987 | 80.36936 | 36726 ft | 510 kts | 89° |
| 2026-04-29 14:45 | 23.16580 | 80.44626 | 36724 ft | 509 kts | 89° |
| 2026-04-29 14:46 | 23.16169 | 80.52306 | 36726 ft | 509 kts | 89° |
| 2026-04-29 14:46 | 23.15754 | 80.59986 | 36724 ft | 509 kts | 89° |
| 2026-04-29 14:47 | 23.15338 | 80.67649 | 36720 ft | 508 kts | 89° |
| 2026-04-29 14:47 | 23.14916 | 80.75315 | 36721 ft | 508 kts | 89° |
| 2026-04-29 14:48 | 23.14498 | 80.82970 | 36723 ft | 507 kts | 89° |
| 2026-04-29 14:48 | 23.14084 | 80.90625 | 36717 ft | 506 kts | 89° |
| 2026-04-29 14:49 | 23.13667 | 80.98264 | 36719 ft | 506 kts | 90° |
| 2026-04-29 14:49 | 23.13250 | 81.05842 | 36717 ft | 505 kts | 90° |
| 2026-04-29 14:50 | 23.12825 | 81.13448 | 36714 ft | 504 kts | 90° |
| 2026-04-29 14:50 | 23.12398 | 81.21045 | 36712 ft | 503 kts | 90° |
| 2026-04-29 14:51 | 23.12041 | 81.27351 | 36707 ft | 503 kts | 90° |
| 2026-04-29 14:51 | 23.11610 | 81.34925 | 36699 ft | 502 kts | 90° |
| 2026-04-29 14:52 | 23.11175 | 81.42501 | 36697 ft | 502 kts | 90° |
| 2026-04-29 14:52 | 23.10735 | 81.50079 | 36691 ft | 502 kts | 90° |
| 2026-04-29 14:53 | 23.10292 | 81.57651 | 36689 ft | 502 kts | 90° |
| 2026-04-29 14:53 | 23.09846 | 81.65221 | 36689 ft | 502 kts | 91° |
| 2026-04-29 14:54 | 23.09396 | 81.72777 | 36685 ft | 501 kts | 91° |
| 2026-04-29 14:54 | 23.08946 | 81.80282 | 36679 ft | 501 kts | 91° |
| 2026-04-29 14:55 | 23.08488 | 81.87871 | 36679 ft | 500 kts | 91° |
| 2026-04-29 14:55 | 23.08032 | 81.95347 | 36671 ft | 499 kts | 91° |
| 2026-04-29 14:56 | 23.07571 | 82.02868 | 36672 ft | 499 kts | 91° |
| 2026-04-29 14:56 | 23.07106 | 82.10379 | 36672 ft | 498 kts | 91° |
| 2026-04-29 14:57 | 23.06642 | 82.17869 | 36673 ft | 496 kts | 91° |
| 2026-04-29 14:57 | 23.06312 | 82.25343 | 36677 ft | 495 kts | 90° |
| 2026-04-29 14:58 | 23.06016 | 82.32802 | 36679 ft | 494 kts | 90° |
| 2026-04-29 14:58 | 23.05698 | 82.40238 | 36682 ft | 492 kts | 91° |
| 2026-04-29 14:59 | 23.05370 | 82.47652 | 36695 ft | 491 kts | 91° |
| 2026-04-29 14:59 | 23.05038 | 82.55051 | 36696 ft | 490 kts | 91° |
| 2026-04-29 15:00 | 23.04704 | 82.62431 | 36695 ft | 489 kts | 91° |
| 2026-04-29 15:00 | 23.04366 | 82.69799 | 36702 ft | 488 kts | 91° |
| 2026-04-29 15:01 | 23.04026 | 82.77167 | 36704 ft | 488 kts | 91° |
| 2026-04-29 15:01 | 23.03683 | 82.84516 | 36712 ft | 488 kts | 91° |
| 2026-04-29 15:02 | 23.03336 | 82.91868 | 36725 ft | 487 kts | 91° |
| 2026-04-29 15:02 | 23.02987 | 82.99204 | 36737 ft | 486 kts | 91° |
| 2026-04-29 15:03 | 23.02638 | 83.06473 | 36747 ft | 485 kts | 91° |
| 2026-04-29 15:03 | 23.02285 | 83.13776 | 36755 ft | 483 kts | 91° |
| 2026-04-29 15:04 | 23.01927 | 83.21065 | 36760 ft | 482 kts | 91° |
| 2026-04-29 15:04 | 23.01568 | 83.28333 | 36764 ft | 481 kts | 91° |
| 2026-04-29 15:05 | 23.01206 | 83.35587 | 36773 ft | 481 kts | 91° |
| 2026-04-29 15:05 | 23.00841 | 83.42831 | 36782 ft | 480 kts | 91° |
| 2026-04-29 15:06 | 23.00474 | 83.50056 | 36787 ft | 479 kts | 91° |
| 2026-04-29 15:06 | 23.00106 | 83.57247 | 36798 ft | 479 kts | 91° |
| 2026-04-29 15:07 | 22.99730 | 83.64510 | 36801 ft | 479 kts | 92° |
| 2026-04-29 15:07 | 22.99356 | 83.71684 | 36805 ft | 478 kts | 92° |
| 2026-04-29 15:08 | 22.98977 | 83.78887 | 36809 ft | 478 kts | 91° |
| 2026-04-29 15:08 | 22.98596 | 83.86086 | 36815 ft | 478 kts | 92° |
| 2026-04-29 15:09 | 22.98210 | 83.93285 | 36817 ft | 477 kts | 91° |
| 2026-04-29 15:09 | 22.97821 | 84.00469 | 36815 ft | 477 kts | 91° |
| 2026-04-29 15:10 | 22.97431 | 84.07655 | 36820 ft | 476 kts | 91° |
| 2026-04-29 15:10 | 22.97034 | 84.14833 | 36818 ft | 476 kts | 92° |
| 2026-04-29 15:11 | 22.96517 | 84.21991 | 36820 ft | 476 kts | 93° |
| 2026-04-29 15:11 | 22.95982 | 84.29105 | 36819 ft | 476 kts | 93° |
| 2026-04-29 15:12 | 22.95456 | 84.36268 | 36820 ft | 476 kts | 92° |
| 2026-04-29 15:12 | 22.94931 | 84.43436 | 36822 ft | 476 kts | 92° |
| 2026-04-29 15:13 | 22.94403 | 84.50601 | 36826 ft | 476 kts | 92° |
| 2026-04-29 15:13 | 22.93873 | 84.57770 | 36828 ft | 476 kts | 93° |
| 2026-04-29 15:14 | 22.93339 | 84.64935 | 36828 ft | 477 kts | 93° |
| 2026-04-29 15:14 | 22.92801 | 84.72105 | 36827 ft | 477 kts | 93° |
| 2026-04-29 15:15 | 22.92259 | 84.79286 | 36831 ft | 477 kts | 93° |
| 2026-04-29 15:15 | 22.91714 | 84.86451 | 36831 ft | 477 kts | 94° |
| 2026-04-29 15:16 | 22.91170 | 84.93571 | 36837 ft | 477 kts | 94° |
| 2026-04-29 15:16 | 22.90619 | 85.00739 | 36841 ft | 477 kts | 94° |
| 2026-04-29 15:17 | 22.90064 | 85.07915 | 36839 ft | 477 kts | 94° |
| 2026-04-29 15:17 | 22.89508 | 85.15083 | 36837 ft | 477 kts | 94° |
| 2026-04-29 15:18 | 22.88957 | 85.22254 | 36834 ft | 477 kts | 94° |
| 2026-04-29 15:18 | 22.88403 | 85.29421 | 36832 ft | 477 kts | 94° |
| 2026-04-29 15:19 | 22.87843 | 85.36611 | 36832 ft | 478 kts | 94° |
| 2026-04-29 15:19 | 22.87280 | 85.43791 | 36832 ft | 478 kts | 95° |
| 2026-04-29 15:20 | 22.86716 | 85.50942 | 36830 ft | 479 kts | 95° |
| 2026-04-29 15:20 | 22.86144 | 85.58154 | 36827 ft | 480 kts | 95° |
| 2026-04-29 15:21 | 22.85568 | 85.65380 | 36828 ft | 481 kts | 95° |
| 2026-04-29 15:21 | 22.84987 | 85.72622 | 36827 ft | 482 kts | 95° |
| 2026-04-29 15:22 | 22.84401 | 85.79884 | 36827 ft | 483 kts | 95° |
| 2026-04-29 15:22 | 22.83810 | 85.87154 | 36827 ft | 484 kts | 95° |
| 2026-04-29 15:23 | 22.83216 | 85.94434 | 36824 ft | 486 kts | 94° |
| 2026-04-29 15:23 | 22.82617 | 86.01735 | 36825 ft | 487 kts | 94° |
| 2026-04-29 15:24 | 22.82012 | 86.09069 | 36831 ft | 489 kts | 94° |
| 2026-04-29 15:24 | 22.81401 | 86.16423 | 36832 ft | 490 kts | 94° |
| 2026-04-29 15:25 | 22.80915 | 86.23744 | 36833 ft | 490 kts | 92° |
| 2026-04-29 15:25 | 22.80565 | 86.31133 | 36834 ft | 491 kts | 92° |
| 2026-04-29 15:26 | 22.80185 | 86.38529 | 36835 ft | 491 kts | 92° |
| 2026-04-29 15:26 | 22.79783 | 86.45927 | 36834 ft | 492 kts | 92° |
| 2026-04-29 15:27 | 22.79376 | 86.53325 | 36836 ft | 492 kts | 93° |
| 2026-04-29 15:27 | 22.78963 | 86.60746 | 36833 ft | 493 kts | 93° |
| 2026-04-29 15:28 | 22.78548 | 86.68176 | 36831 ft | 494 kts | 93° |
| 2026-04-29 15:28 | 22.78129 | 86.75614 | 36831 ft | 495 kts | 93° |
| 2026-04-29 15:29 | 22.77705 | 86.83065 | 36823 ft | 495 kts | 94° |
| 2026-04-29 15:30 | 22.76848 | 86.97952 | 36822 ft | 497 kts | 94° |
| 2026-04-29 15:30 | 22.76412 | 87.05435 | 36821 ft | 498 kts | 94° |
| 2026-04-29 15:31 | 22.75972 | 87.12934 | 36820 ft | 498 kts | 94° |
| 2026-04-29 15:31 | 22.75530 | 87.20425 | 36819 ft | 498 kts | 94° |
| 2026-04-29 15:32 | 22.75083 | 87.27924 | 36823 ft | 499 kts | 95° |
| 2026-04-29 15:32 | 22.74632 | 87.35426 | 36815 ft | 499 kts | 95° |
| 2026-04-29 15:33 | 22.74181 | 87.42881 | 36814 ft | 499 kts | 95° |
| 2026-04-29 15:33 | 22.73723 | 87.50383 | 36824 ft | 499 kts | 95° |
| 2026-04-29 15:34 | 22.73261 | 87.57888 | 36817 ft | 499 kts | 95° |
| 2026-04-29 15:34 | 22.72795 | 87.65397 | 36815 ft | 499 kts | 95° |
| 2026-04-29 15:35 | 22.72326 | 87.72903 | 36821 ft | 499 kts | 95° |
| 2026-04-29 15:35 | 22.71933 | 87.79146 | 36816 ft | 499 kts | 95° |
| 2026-04-29 15:36 | 22.71458 | 87.86657 | 36816 ft | 499 kts | 95° |
| 2026-04-29 15:36 | 22.70979 | 87.94159 | 36816 ft | 499 kts | 95° |
| 2026-04-29 15:37 | 22.70497 | 88.01659 | 36815 ft | 499 kts | 95° |
| 2026-04-29 15:37 | 22.70011 | 88.09160 | 36816 ft | 500 kts | 95° |
| 2026-04-29 15:38 | 22.69521 | 88.16681 | 36814 ft | 500 kts | 96° |
| 2026-04-29 15:38 | 22.69026 | 88.24206 | 36815 ft | 501 kts | 96° |
| 2026-04-29 15:39 | 22.68527 | 88.31736 | 36807 ft | 501 kts | 96° |
| 2026-04-29 15:39 | 22.68076 | 88.39276 | 36807 ft | 503 kts | 91° |
| 2026-04-29 15:40 | 22.69239 | 88.46738 | 36872 ft | 506 kts | 71° |
| 2026-04-29 15:40 | 22.70670 | 88.50224 | 36878 ft | 507 kts | 60° |
| 2026-04-29 15:40 | 22.72473 | 88.53449 | 36864 ft | 507 kts | 58° |
| 2026-04-29 15:41 | 22.76158 | 88.59991 | 36851 ft | 509 kts | 58° |
| 2026-04-29 15:41 | 22.79820 | 88.66563 | 36833 ft | 510 kts | 58° |
| 2026-04-29 15:42 | 22.83486 | 88.73157 | 36808 ft | 511 kts | 58° |
| 2026-04-29 15:42 | 22.87161 | 88.79772 | 36803 ft | 512 kts | 58° |
| 2026-04-29 15:42 | 22.88996 | 88.83079 | 36610 ft | 510 kts | 58° |
| 2026-04-29 15:43 | 22.90827 | 88.86378 | 36021 ft | 511 kts | 58° |
| 2026-04-29 15:43 | 22.92665 | 88.89691 | 35144 ft | 515 kts | 59° |
| 2026-04-29 15:43 | 22.94563 | 88.93014 | 34069 ft | 520 kts | 57° |
| 2026-04-29 15:43 | 22.96566 | 88.96316 | 32695 ft | 527 kts | 57° |
| 2026-04-29 15:44 | 22.98579 | 88.99584 | 31277 ft | 526 kts | 56° |
| 2026-04-29 15:44 | 23.00604 | 89.02883 | 29618 ft | 525 kts | 56° |
| 2026-04-29 15:44 | 23.02606 | 89.06171 | 28189 ft | 518 kts | 56° |
| 2026-04-29 15:44 | 23.04564 | 89.09407 | 27236 ft | 507 kts | 56° |
| 2026-04-29 15:45 | 23.06471 | 89.12567 | 26576 ft | 491 kts | 56° |
| 2026-04-29 15:45 | 23.08308 | 89.15618 | 26207 ft | 472 kts | 56° |
| 2026-04-29 15:45 | 23.10093 | 89.18583 | 25886 ft | 469 kts | 56° |
| 2026-04-29 15:45 | 23.11882 | 89.21554 | 25272 ft | 471 kts | 55° |
| 2026-04-29 15:46 | 23.13679 | 89.24539 | 24575 ft | 473 kts | 55° |
| 2026-04-29 15:46 | 23.15474 | 89.27524 | 23935 ft | 470 kts | 55° |
| 2026-04-29 15:46 | 23.17250 | 89.30479 | 23300 ft | 466 kts | 55° |
| 2026-04-29 15:46 | 23.19007 | 89.33408 | 22678 ft | 458 kts | 55° |
| 2026-04-29 15:47 | 23.20733 | 89.36286 | 22075 ft | 451 kts | 55° |
| 2026-04-29 15:47 | 23.22433 | 89.39121 | 21484 ft | 445 kts | 54° |
| 2026-04-29 15:47 | 23.24112 | 89.41923 | 20881 ft | 438 kts | 54° |
| 2026-04-29 15:47 | 23.25761 | 89.44675 | 20273 ft | 431 kts | 54° |
| 2026-04-29 15:48 | 23.27387 | 89.47391 | 19659 ft | 427 kts | 54° |
| 2026-04-29 15:48 | 23.28996 | 89.50078 | 19096 ft | 420 kts | 54° |
| 2026-04-29 15:48 | 23.30574 | 89.52718 | 18499 ft | 414 kts | 54° |
| 2026-04-29 15:48 | 23.32134 | 89.55329 | 17924 ft | 408 kts | 53° |
| 2026-04-29 15:49 | 23.33652 | 89.57866 | 17381 ft | 401 kts | 53° |
| 2026-04-29 15:49 | 23.35157 | 89.60383 | 16827 ft | 393 kts | 54° |
| 2026-04-29 15:49 | 23.36650 | 89.62848 | 16287 ft | 385 kts | 52° |
| 2026-04-29 15:49 | 23.38325 | 89.65081 | 15751 ft | 376 kts | 43° |
| 2026-04-29 15:50 | 23.40220 | 89.66994 | 15231 ft | 368 kts | 36° |
| 2026-04-29 15:50 | 23.42204 | 89.68745 | 14944 ft | 373 kts | 36° |
| 2026-04-29 15:50 | 23.44128 | 89.70756 | 14853 ft | 393 kts | 45° |
| 2026-04-29 15:50 | 23.45932 | 89.72994 | 14832 ft | 393 kts | 46° |
| 2026-04-29 15:51 | 23.47706 | 89.75255 | 14835 ft | 393 kts | 46° |
| 2026-04-29 15:51 | 23.49486 | 89.77520 | 14833 ft | 393 kts | 46° |
| 2026-04-29 15:51 | 23.51273 | 89.79781 | 14834 ft | 393 kts | 46° |
| 2026-04-29 15:51 | 23.53066 | 89.82038 | 14839 ft | 393 kts | 46° |
| 2026-04-29 15:52 | 23.54860 | 89.84288 | 14838 ft | 394 kts | 46° |
| 2026-04-29 15:52 | 23.56658 | 89.86542 | 14835 ft | 394 kts | 46° |
| 2026-04-29 15:52 | 23.58458 | 89.88798 | 14838 ft | 394 kts | 46° |
| 2026-04-29 15:52 | 23.60255 | 89.91051 | 14837 ft | 394 kts | 46° |
| 2026-04-29 15:53 | 23.62052 | 89.93306 | 14837 ft | 394 kts | 46° |
| 2026-04-29 15:53 | 23.63851 | 89.95564 | 14841 ft | 394 kts | 46° |
| 2026-04-29 15:53 | 23.65206 | 89.97266 | 14838 ft | 394 kts | 46° |
| 2026-04-29 15:53 | 23.66930 | 89.99432 | 14839 ft | 394 kts | 46° |
| 2026-04-29 15:54 | 23.68726 | 90.01690 | 14834 ft | 394 kts | 46° |
| 2026-04-29 15:54 | 23.70521 | 90.03947 | 14830 ft | 394 kts | 46° |
| 2026-04-29 15:54 | 23.72273 | 90.06237 | 14826 ft | 395 kts | 52° |
| 2026-04-29 15:54 | 23.73532 | 90.08915 | 14834 ft | 399 kts | 69° |
| 2026-04-29 15:55 | 23.74366 | 90.11809 | 14833 ft | 400 kts | 72° |
| 2026-04-29 15:55 | 23.75124 | 90.14724 | 14832 ft | 400 kts | 73° |
| 2026-04-29 15:55 | 23.75886 | 90.17647 | 14832 ft | 400 kts | 72° |
| 2026-04-29 15:55 | 23.76667 | 90.20565 | 14832 ft | 400 kts | 72° |
| 2026-04-29 15:56 | 23.77464 | 90.23474 | 14829 ft | 400 kts | 72° |
| 2026-04-29 15:56 | 23.78268 | 90.26373 | 14824 ft | 399 kts | 71° |
| 2026-04-29 15:56 | 23.79075 | 90.29266 | 14436 ft | 399 kts | 72° |
| 2026-04-29 15:56 | 23.79855 | 90.32053 | 13716 ft | 403 kts | 72° |
| 2026-04-29 15:57 | 23.80681 | 90.35006 | 12673 ft | 409 kts | 72° |
| 2026-04-29 15:57 | 23.81498 | 90.37933 | 11875 ft | 404 kts | 73° |
| 2026-04-29 15:57 | 23.82334 | 90.40699 | 11141 ft | 399 kts | 70° |
| 2026-04-29 15:57 | 23.83286 | 90.43525 | 10401 ft | 394 kts | 70° |
| 2026-04-29 15:58 | 23.84256 | 90.46295 | 9667 ft | 387 kts | 66° |
| 2026-04-29 15:58 | 23.85705 | 90.48740 | 8856 ft | 382 kts | 47° |
| 2026-04-29 15:58 | 23.87758 | 90.50531 | 8079 ft | 376 kts | 28° |
| 2026-04-29 15:58 | 23.90191 | 90.51480 | 7312 ft | 369 kts | 8° |
| 2026-04-29 15:59 | 23.92723 | 90.51648 | 6575 ft | 362 kts | 359° |
| 2026-04-29 15:59 | 23.95232 | 90.51721 | 5817 ft | 358 kts | 359° |
| 2026-04-29 15:59 | 23.97714 | 90.51795 | 5038 ft | 354 kts | 359° |
| 2026-04-29 15:59 | 24.00159 | 90.51831 | 4382 ft | 346 kts | 354° |
| 2026-04-29 16:00 | 24.02398 | 90.51218 | 4116 ft | 320 kts | 332° |
| 2026-04-29 16:00 | 24.04295 | 90.50160 | 4015 ft | 293 kts | 329° |
| 2026-04-29 16:00 | 24.06056 | 90.49183 | 4012 ft | 283 kts | 329° |
| 2026-04-29 16:00 | 24.07825 | 90.48201 | 4010 ft | 284 kts | 329° |
| 2026-04-29 16:01 | 24.09582 | 90.47225 | 4011 ft | 283 kts | 329° |
| 2026-04-29 16:01 | 24.11331 | 90.46244 | 4010 ft | 282 kts | 329° |
| 2026-04-29 16:01 | 24.13072 | 90.45257 | 4011 ft | 281 kts | 328° |
| 2026-04-29 16:01 | 24.14530 | 90.43886 | 4009 ft | 275 kts | 303° |
| 2026-04-29 16:02 | 24.15299 | 90.42011 | 4012 ft | 268 kts | 277° |
| 2026-04-29 16:02 | 24.15235 | 90.40028 | 4009 ft | 260 kts | 250° |
| 2026-04-29 16:02 | 24.14487 | 90.38255 | 4011 ft | 256 kts | 239° |
| 2026-04-29 16:02 | 24.13477 | 90.36676 | 4015 ft | 254 kts | 220° |
| 2026-04-29 16:03 | 24.12008 | 90.35634 | 4005 ft | 252 kts | 209° |
| 2026-04-29 16:03 | 24.10496 | 90.34667 | 4009 ft | 251 kts | 209° |
| 2026-04-29 16:03 | 24.08982 | 90.33699 | 4005 ft | 253 kts | 209° |
| 2026-04-29 16:03 | 24.07475 | 90.32730 | 4010 ft | 251 kts | 210° |
| 2026-04-29 16:04 | 24.05961 | 90.31767 | 4004 ft | 251 kts | 209° |
| 2026-04-29 16:04 | 24.04463 | 90.30813 | 3982 ft | 247 kts | 210° |
| 2026-04-29 16:04 | 24.03006 | 90.29877 | 3661 ft | 245 kts | 209° |
| 2026-04-29 16:04 | 24.01521 | 90.28899 | 2861 ft | 254 kts | 210° |
| 2026-04-29 16:05 | 24.00017 | 90.27899 | 2338 ft | 248 kts | 209° |
| 2026-04-29 16:05 | 23.98596 | 90.26924 | 2102 ft | 233 kts | 210° |
| 2026-04-29 16:05 | 23.97277 | 90.26004 | 2003 ft | 217 kts | 210° |
| 2026-04-29 16:05 | 23.95994 | 90.25225 | 1998 ft | 210 kts | 195° |
| 2026-04-29 16:06 | 23.94557 | 90.25166 | 2005 ft | 208 kts | 165° |
| 2026-04-29 16:06 | 23.93324 | 90.25971 | 2006 ft | 211 kts | 134° |
| 2026-04-29 16:06 | 23.92672 | 90.27415 | 2006 ft | 218 kts | 103° |
| 2026-04-29 16:06 | 23.92494 | 90.29055 | 2005 ft | 216 kts | 99° |
| 2026-04-29 16:07 | 23.92616 | 90.30698 | 2021 ft | 220 kts | 80° |
| 2026-04-29 16:07 | 23.92693 | 90.31781 | 1854 ft | 212 kts | 101° |
| 2026-04-29 16:07 | 23.91846 | 90.33596 | 1537 ft | 198 kts | 134° |
| 2026-04-29 16:07 | 23.90833 | 90.34597 | 1282 ft | 196 kts | 142° |
| 2026-04-29 16:08 | 23.89747 | 90.35474 | 1039 ft | 191 kts | 145° |
| 2026-04-29 16:08 | 23.88688 | 90.36307 | 795 ft | 184 kts | 142° |
| 2026-04-29 16:08 | 23.87677 | 90.37111 | 579 ft | 174 kts | 142° |
| 2026-04-29 16:08 | 23.86741 | 90.37863 | 372 ft | 158 kts | 142° |
| 2026-04-29 16:09 | 23.85889 | 90.38539 | 166 ft | 147 kts | 140° |
| 2026-04-29 16:09 | 23.85067 | 90.39214 | 42 ft | 131 kts | 143° |
| 2026-04-29 16:09 | 23.84572 | 90.39601 | 43 ft | 42 kts | 144° |
| 2026-04-29 16:09 | 23.84355 | 90.39761 | 41 ft | 39 kts | 146° |
| 2026-04-29 16:10 | 23.84132 | 90.39937 | 46 ft | 41 kts | 143° |
| 2026-04-29 16:10 | 23.83911 | 90.40119 | 44 ft | 38 kts | 143° |
| 2026-04-29 16:10 | 23.83794 | 90.40236 | 45 ft | 8 kts | 117° |
| 2026-04-29 16:10 | 23.83763 | 90.40303 | 44 ft | 13 kts | 116° |
| 2026-04-29 16:11 | 23.83716 | 90.40413 | 42 ft | 18 kts | 112° |
| 2026-04-29 16:11 | 23.83701 | 90.40564 | 42 ft | 22 kts | 82° |
| 2026-04-29 16:11 | 23.83776 | 90.40716 | 42 ft | 25 kts | 54° |
| 2026-04-29 16:11 | 23.83884 | 90.40801 | 42 ft | 16 kts | 352° |
| 2026-04-29 16:12 | 23.83978 | 90.40730 | 42 ft | 19 kts | 324° |
| 2026-04-29 16:12 | 23.84055 | 90.40670 | 41 ft | 22 kts | 324° |
| 2026-04-29 16:12 | 23.84181 | 90.40572 | 40 ft | 5 kts | 324° |
| 2026-04-29 16:12 | 23.84226 | 90.40537 | 42 ft | 11 kts | 324° |
| 2026-04-29 16:13 | 23.84302 | 90.40478 | 41 ft | 16 kts | 324° |
| 2026-04-29 16:13 | 23.84404 | 90.40395 | 42 ft | 21 kts | 323° |
| 2026-04-29 16:13 | 23.84486 | 90.40329 | 40 ft | 21 kts | 323° |
| 2026-04-29 16:13 | 23.84540 | 90.40286 | 42 ft | 1 kts | 323° |
| 2026-04-29 16:14 | 23.84574 | 90.40258 | 41 ft | 9 kts | 323° |
| 2026-04-29 16:14 | 23.84617 | 90.40241 | 42 ft | 10 kts | 354° |
| 2026-04-29 16:14 | 23.84691 | 90.40311 | 41 ft | 9 kts | 44° |
| 2026-04-29 16:14 | 23.84737 | 90.40321 | 42 ft | 11 kts | 354° |
| 2026-04-29 16:15 | 23.84812 | 90.40258 | 42 ft | 15 kts | 320° |
| 2026-04-29 16:15 | 23.84826 | 90.40246 | 42 ft | 4 kts | 321° |
| 2026-04-29 16:15 | 23.84863 | 90.40215 | 42 ft | 2 kts | 324° |
| 2026-04-29 16:15 | 23.84875 | 90.40205 | 41 ft | 5 kts | 324° |
| 2026-04-29 16:16 | 23.84911 | 90.40214 | 42 ft | 6 kts | 37° |
| 2026-04-29 16:16 | 23.84926 | 90.40230 | 39 ft | 4 kts | 45° |
| 2026-04-29 16:16 | 23.84930 | 90.40236 | 40 ft | 0 kts | 52° |
| 2026-04-29 16:17 | 23.84932 | 90.40237 | 40 ft | 0 kts | 49° |
| 2026-04-29 16:17 | 23.84937 | 90.40245 | 40 ft | 0 kts | 51° |
| 2026-04-29 16:17 | 23.84941 | 90.40250 | 40 ft | 0 kts | 52° |
| 2026-04-29 16:18 | 23.84942 | 90.40252 | 41 ft | 0 kts | 52° |
| 2026-04-29 16:18 | 23.84943 | 90.40254 | 41 ft | 0 kts | 52° |
| 2026-04-29 16:18 | 23.84946 | 90.40258 | 41 ft | 1 kts | 52° |
| 2026-04-29 16:19 | 23.84948 | 90.40261 | 42 ft | 0 kts | 53° |
| 2026-04-29 16:19 | 23.84949 | 90.40262 | 42 ft | 0 kts | 53° |